DL628 / N696DL 7700 Squawk Report (3rd of May, 2021)

Aircraft B752 Reg No. N696DL Age 22 years old
Model 757 Jet engines 2 First flight 08-01-99
Registered 01-05-06 Rollout N/A Delivered 27-01-99
Construction No. 29728 Line No. 0845 Series 232
ADSHEX A94156 Airline name Delta Air Lines Owner N/A
Airfield based Atlanta-Hartsfield~GA~N First tracked N/A

Flight history for N696DL

Route Flight No Date Playback
Minneapolis-St.Paul Intl (MSP) - Denver Intl (DEN) DL2809 2021-05-15 13:02:00
Hartsfield Jackson Atlanta Intl (ATL) - Minneapolis-St.Paul Intl (MSP) DL2112 2021-05-15 04:18:00
Princess Juliana Intl (SXM) - Hartsfield Jackson Atlanta Intl (ATL) DL1873 2021-05-14 23:09:00
Hartsfield Jackson Atlanta Intl (ATL) - Princess Juliana Intl (SXM) DL1894 2021-05-14 19:07:00
Fort Lauderdale Hollywood Intl (FLL) - Hartsfield Jackson Atlanta Intl (ATL) DL1437 2021-05-14 11:12:00
Hartsfield Jackson Atlanta Intl (ATL) - Fort Lauderdale Hollywood Intl (FLL) DL1353 2021-05-14 00:05:00
Luis Munoz Marin Intl (SJU) - Hartsfield Jackson Atlanta Intl (ATL) DL1228 2021-05-13 20:56:00
Los Angeles Intl (LAX) - Hartsfield Jackson Atlanta Intl (ATL) DL2068 2021-05-13 00:03:00
Licenciado Benito Juarez (MEX) - Los Angeles Intl (LAX) DL615 2021-05-12 17:43:00
Los Angeles Intl (LAX) - Licenciado Benito Juarez (MEX) DL607 2021-05-11 23:57:00
La Aurora (GUA) - Los Angeles Intl (LAX) DL1903 2021-05-11 20:34:00
Los Angeles Intl (LAX) - La Aurora (GUA) DL1897 2021-05-11 14:10:00
Hartsfield Jackson Atlanta Intl (ATL) - Los Angeles Intl (LAX) DL351 2021-05-11 07:08:00
McCarran Intl (LAS) - Hartsfield Jackson Atlanta Intl (ATL) DL957 2021-05-10 21:41:00
Minneapolis-St.Paul Intl (MSP) - McCarran Intl (LAS) DL1262 2021-05-10 16:23:00
McCarran Intl (LAS) - Minneapolis-St.Paul Intl (MSP) DL2336 2021-05-10 10:00:00
Minneapolis-St.Paul Intl (MSP) - McCarran Intl (LAS) DL2204 2021-05-10 04:46:00
McCarran Intl (LAS) - Minneapolis-St.Paul Intl (MSP) DL974 2021-05-09 23:34:00
Minneapolis-St.Paul Intl (MSP) - McCarran Intl (LAS) DL1465 2021-05-09 19:04:00
Southwest Florida Intl (RSW) - Minneapolis-St.Paul Intl (MSP) DL398 2021-05-09 13:59:00
Time Lat Lon Altitude Heading Speed Vertical Rate
2021-05-03 18:12:22 GMT 31.806587 -106.388855 0 160 11 0
2021-05-03 18:12:17 GMT 31.806793 -106.388969 0 143 12 0
2021-05-03 18:12:06 GMT 31.807213 -106.389359 0 140 13 0
2021-05-03 18:11:56 GMT 31.807667 -106.389824 0 140 12 0
2021-05-03 18:11:45 GMT 31.808064 -106.390228 0 154 9 0
2021-05-03 18:11:35 GMT 31.808361 -106.390327 0 216 5 0
2021-05-03 18:11:25 GMT 31.808493 -106.390182 0 233 5 0
2021-05-03 18:11:14 GMT 31.808643 -106.389977 0 230 5 0
2021-05-03 18:11:03 GMT 31.808760 -106.389793 0 230 3 0
2021-05-03 18:10:53 GMT 31.808830 -106.389694 0 230 0 0
2021-05-03 18:10:11 GMT 31.808853 -106.389671 0 230 0 0
2021-05-03 18:10:00 GMT 31.808853 -106.389664 0 230 3 0
2021-05-03 18:09:50 GMT 31.809038 -106.389420 0 230 20 0
2021-05-03 18:09:40 GMT 31.809889 -106.388222 0 230 42 0
2021-05-03 18:09:30 GMT 31.811268 -106.386299 0 230 61 0
2021-05-03 18:09:19 GMT 31.813465 -106.383263 4,025 230 86 0
2021-05-03 18:09:08 GMT 31.816454 -106.379105 4,025 231 127 -128
2021-05-03 18:08:57 GMT 31.820984 -106.372818 4,075 230 144 -320
2021-05-03 18:08:47 GMT 31.825205 -106.366882 4,175 230 143 -768
2021-05-03 18:08:37 GMT 31.829626 -106.360718 4,325 231 142 -704
2021-05-03 18:08:27 GMT 31.834003 -106.354492 4,450 230 138 -768
2021-05-03 18:08:17 GMT 31.838194 -106.348724 4,550 231 140 -640
2021-05-03 18:08:06 GMT 31.842522 -106.342613 4,700 230 139 -576
2021-05-03 18:07:55 GMT 31.846985 -106.336342 4,825 231 137 -704
2021-05-03 18:07:45 GMT 31.851274 -106.330338 4,925 231 140 -768
2021-05-03 18:07:34 GMT 31.855696 -106.324173 5,075 231 142 -704
2021-05-03 18:07:24 GMT 31.860258 -106.317726 5,225 230 151 -1024
2021-05-03 18:07:13 GMT 31.865007 -106.310997 5,375 230 159 -1024
2021-05-03 18:07:03 GMT 31.869987 -106.304214 5,500 231 167 -1088
2021-05-03 18:06:53 GMT 31.875366 -106.296623 5,650 231 171 -960
2021-05-03 18:06:42 GMT 31.880835 -106.288910 5,800 231 181 -896
2021-05-03 18:06:30 GMT 31.887268 -106.279709 5,950 231 190 -448
2021-05-03 18:06:21 GMT 31.892567 -106.271988 6,100 231 193 -1088
2021-05-03 18:06:11 GMT 31.898338 -106.264084 6,300 231 187 -1280
2021-05-03 18:06:00 GMT 31.904114 -106.255318 6,500 238 185 -1344
2021-05-03 18:05:50 GMT 31.907776 -106.246475 6,625 253 184 -512
2021-05-03 18:05:39 GMT 31.909698 -106.235764 6,600 267 179 0
2021-05-03 18:05:31 GMT 31.909231 -106.226974 6,600 288 182 128
2021-05-03 18:05:26 GMT 31.908300 -106.223503 6,600 293 186 0
2021-05-03 18:05:18 GMT 31.904160 -106.215988 6,575 315 202 192
2021-05-03 18:05:07 GMT 31.896568 -106.208366 6,625 323 207 0
2021-05-03 18:04:56 GMT 31.888184 -106.200882 6,625 323 214 -576
2021-05-03 18:04:46 GMT 31.879438 -106.193062 6,775 324 225 -1472
2021-05-03 18:04:39 GMT 31.872894 -106.187363 6,975 324 229 -1536
2021-05-03 18:04:36 GMT 31.871571 -106.186279 7,025 325 232 -832
2021-05-03 18:04:26 GMT 31.862183 -106.178520 7,250 330 237 -1664
2021-05-03 18:04:18 GMT 31.854172 -106.173302 7,475 341 245 -1984
2021-05-03 18:04:15 GMT 31.851879 -106.172264 7,550 345 248 -2048
2021-05-03 18:04:05 GMT 31.839935 -106.170059 7,900 1 255 -1984
2021-05-03 18:03:54 GMT 31.827667 -106.170609 8,200 3 253 -1536
2021-05-03 18:03:47 GMT 31.818054 -106.171219 8,400 3 253 -1216
2021-05-03 18:03:44 GMT 31.815353 -106.171379 8,425 3 253 -1024
2021-05-03 18:03:34 GMT 31.803326 -106.172096 8,650 3 255 -1152
2021-05-03 18:03:26 GMT 31.793518 -106.172752 8,800 2 258 -1024
2021-05-03 18:03:23 GMT 31.790405 -106.172920 8,825 2 259 -1024
2021-05-03 18:03:15 GMT 31.780468 -106.173500 8,975 2 261 -1024
2021-05-03 18:03:12 GMT 31.778000 -106.173630 9,000 2 262 -896
2021-05-03 18:03:02 GMT 31.765152 -106.174347 9,075 3 264 0
2021-05-03 18:02:55 GMT 31.755005 -106.175003 9,100 3 266 -192
2021-05-03 18:02:51 GMT 31.751884 -106.175171 9,100 3 266 128
2021-05-03 18:02:43 GMT 31.742203 -106.175774 9,100 3 265 0
2021-05-03 18:02:40 GMT 31.738617 -106.175995 9,100 3 264 -64
2021-05-03 18:02:34 GMT 31.729889 -106.176506 9,100 2 262 -256
2021-05-03 18:02:30 GMT 31.726089 -106.176720 9,100 2 260 -128
2021-05-03 18:02:23 GMT 31.717346 -106.177315 9,075 3 261 0
2021-05-03 18:02:20 GMT 31.713455 -106.177582 9,075 3 262 -128
2021-05-03 18:02:12 GMT 31.704634 -106.178192 9,100 3 264 0
2021-05-03 18:02:09 GMT 31.700500 -106.178497 9,100 3 265 128
2021-05-03 18:02:03 GMT 31.691895 -106.179092 9,100 3 265 -512
2021-05-03 18:01:59 GMT 31.688095 -106.179359 9,100 2 264 128
2021-05-03 18:01:51 GMT 31.678844 -106.179947 9,075 3 265 192
2021-05-03 18:01:48 GMT 31.674656 -106.180222 9,075 3 266 -384
2021-05-03 18:01:42 GMT 31.666042 -106.181046 9,125 6 265 -64
2021-05-03 18:01:38 GMT 31.662186 -106.181519 9,125 8 266 896
2021-05-03 18:01:31 GMT 31.653671 -106.183235 9,075 12 271 -320
2021-05-03 18:01:27 GMT 31.649330 -106.184341 9,100 12 270 -192
2021-05-03 18:01:20 GMT 31.640808 -106.186630 9,100 12 269 -64
2021-05-03 18:01:17 GMT 31.636761 -106.187698 9,100 12 270 -128
2021-05-03 18:01:11 GMT 31.627823 -106.190109 9,100 13 272 256
2021-05-03 18:01:07 GMT 31.624146 -106.191101 9,100 13 274 -128
2021-05-03 18:00:59 GMT 31.614899 -106.193634 9,100 12 276 128
2021-05-03 18:00:56 GMT 31.611252 -106.194618 9,100 12 277 -64
2021-05-03 18:00:50 GMT 31.602264 -106.197021 9,075 12 279 192
2021-05-03 18:00:46 GMT 31.598099 -106.198105 9,075 12 282 -64
2021-05-03 18:00:38 GMT 31.588301 -106.200714 9,100 12 282 -64
2021-05-03 18:00:30 GMT 31.577728 -106.203438 9,100 12 281 64
2021-05-03 18:00:20 GMT 31.564512 -106.206863 9,075 12 284 192
2021-05-03 18:00:17 GMT 31.561022 -106.207802 9,075 13 284 0
2021-05-03 18:00:07 GMT 31.548405 -106.211479 9,075 16 285 -64
2021-05-03 17:59:58 GMT 31.536072 -106.216248 9,100 21 283 192
2021-05-03 17:59:48 GMT 31.525681 -106.221153 9,100 21 280 384
2021-05-03 17:59:38 GMT 31.512543 -106.227402 9,075 22 281 64
2021-05-03 17:59:28 GMT 31.500410 -106.233177 9,100 22 281 -256
2021-05-03 17:59:21 GMT 31.492403 -106.236969 9,125 22 280 0
2021-05-03 17:59:15 GMT 31.485699 -106.240211 9,100 22 278 320
2021-05-03 17:59:06 GMT 31.473175 -106.246193 9,075 22 281 -256
2021-05-03 17:58:56 GMT 31.459118 -106.252953 9,100 22 277 384
2021-05-03 17:58:45 GMT 31.448456 -106.258202 9,100 23 279 192
2021-05-03 17:58:34 GMT 31.436234 -106.265045 9,075 29 284 -192
2021-05-03 17:58:23 GMT 31.423412 -106.273666 9,100 30 280 448
2021-05-03 17:58:14 GMT 31.412333 -106.281242 9,075 30 284 -320
2021-05-03 17:58:02 GMT 31.400370 -106.289322 9,125 30 279 128
2021-05-03 17:57:52 GMT 31.388077 -106.297844 9,075 31 281 -64
2021-05-03 17:57:41 GMT 31.376814 -106.305740 9,100 31 283 0
2021-05-03 17:57:31 GMT 31.365601 -106.313728 9,100 31 285 320
2021-05-03 17:57:21 GMT 31.354065 -106.321968 9,100 31 286 -64
2021-05-03 17:57:11 GMT 31.342163 -106.330368 9,100 30 282 -64
2021-05-03 17:57:01 GMT 31.329889 -106.338921 9,075 30 285 -64
2021-05-03 17:56:49 GMT 31.318157 -106.347107 9,100 31 288 192
2021-05-03 17:56:40 GMT 31.306274 -106.355522 9,100 31 289 -128
2021-05-03 17:56:29 GMT 31.294235 -106.363976 9,100 31 288 128
2021-05-03 17:56:19 GMT 31.282825 -106.371994 9,100 30 287 64
2021-05-03 17:56:09 GMT 31.270815 -106.380341 9,100 30 288 -192
2021-05-03 17:55:58 GMT 31.258898 -106.388527 9,100 30 287 320
2021-05-03 17:55:48 GMT 31.246857 -106.396828 9,100 30 289 -128
2021-05-03 17:55:37 GMT 31.234922 -106.405060 9,100 30 285 0
2021-05-03 17:55:26 GMT 31.222733 -106.413361 9,100 30 285 128
2021-05-03 17:55:17 GMT 31.210669 -106.421539 9,100 29 291 0
2021-05-03 17:55:06 GMT 31.198608 -106.429138 9,100 23 290 64
2021-05-03 17:54:56 GMT 31.185345 -106.434280 9,075 8 284 512
2021-05-03 17:54:44 GMT 31.171234 -106.435654 9,100 1 288 -448
2021-05-03 17:54:35 GMT 31.157970 -106.436043 9,250 1 287 -960
2021-05-03 17:54:25 GMT 31.143820 -106.436371 9,375 1 287 -384
2021-05-03 17:54:20 GMT 31.138687 -106.436516 9,400 1 288 -448
2021-05-03 17:54:12 GMT 31.128021 -106.436729 9,450 0 290 -448
2021-05-03 17:54:03 GMT 31.114771 -106.437027 9,600 0 289 -960
2021-05-03 17:53:57 GMT 31.107788 -106.437141 9,675 0 289 -1152
2021-05-03 17:53:53 GMT 31.101974 -106.437271 9,725 0 290 -320
2021-05-03 17:53:30 GMT 31.071245 -106.437691 9,900 0 294 -832
2021-05-03 17:53:21 GMT 31.059448 -106.437920 9,975 1 295 -640
2021-05-03 17:53:12 GMT 31.045395 -106.438187 10,075 0 298 -192
2021-05-03 17:53:01 GMT 31.030930 -106.438347 10,100 0 300 -64
2021-05-03 17:52:56 GMT 31.024200 -106.438400 10,100 0 299 64
2021-05-03 17:52:51 GMT 31.016359 -106.438461 10,100 0 298 0
2021-05-03 17:52:39 GMT 31.001278 -106.438736 10,125 0 297 -64
2021-05-03 17:52:34 GMT 30.993734 -106.438843 10,100 1 302 -128
2021-05-03 17:52:29 GMT 30.987167 -106.438995 10,075 1 302 -128
2021-05-03 17:52:25 GMT 30.981073 -106.439117 10,100 0 302 -576
2021-05-03 17:52:20 GMT 30.973206 -106.439224 10,125 0 300 256
2021-05-03 17:52:09 GMT 30.958775 -106.439499 10,125 1 299 64
2021-05-03 17:51:58 GMT 30.942444 -106.439964 10,100 1 300 -64
2021-05-03 17:51:55 GMT 30.939735 -106.440048 10,100 1 300 -320
2021-05-03 17:51:48 GMT 30.929581 -106.440285 10,125 0 295 -64
2021-05-03 17:51:44 GMT 30.925117 -106.440323 10,125 0 294 128
2021-05-03 17:51:37 GMT 30.915207 -106.440445 10,100 0 297 128
2021-05-03 17:51:33 GMT 30.910219 -106.440544 10,075 0 299 0
2021-05-03 17:51:27 GMT 30.901382 -106.440666 10,100 0 301 128
2021-05-03 17:51:22 GMT 30.894905 -106.440765 10,100 0 301 0
2021-05-03 17:51:16 GMT 30.885910 -106.440933 10,100 1 301 64
2021-05-03 17:51:07 GMT 30.872047 -106.441261 10,100 0 301 64
2021-05-03 17:50:55 GMT 30.857025 -106.441467 10,100 0 301 -64
2021-05-03 17:50:46 GMT 30.843185 -106.441696 10,100 0 296 -128
2021-05-03 17:50:35 GMT 30.828476 -106.441971 10,100 1 293 256
2021-05-03 17:50:31 GMT 30.824099 -106.442139 10,075 1 295 0
2021-05-03 17:50:24 GMT 30.814369 -106.442467 10,100 1 295 -256
We lost coverage of the aircraft here for a total of 12 minutes
2021-05-03 17:38:28 GMT 29.802338 -106.461479 15,150 0 379 -3584
2021-05-03 17:38:19 GMT 29.786499 -106.461800 15,750 1 383 -4096
2021-05-03 17:38:08 GMT 29.766851 -106.462257 16,525 1 386 -4288
2021-05-03 17:37:56 GMT 29.746124 -106.462852 17,300 1 388 -4096
2021-05-03 17:37:47 GMT 29.729919 -106.463333 17,875 1 390 -3584
2021-05-03 17:37:37 GMT 29.710693 -106.463860 18,450 1 394 -3072
2021-05-03 17:37:27 GMT 29.692154 -106.464333 18,975 1 400 -3200
2021-05-03 17:37:16 GMT 29.672745 -106.464653 19,525 0 406 -3136
2021-05-03 17:37:05 GMT 29.651917 -106.464653 20,050 0 413 -2560
2021-05-03 17:36:54 GMT 29.631105 -106.463661 20,475 352 414 -2368
2021-05-03 17:36:44 GMT 29.611221 -106.459053 20,950 343 413 -2816
2021-05-03 17:36:33 GMT 29.592699 -106.450844 21,525 332 409 -3776
2021-05-03 17:36:23 GMT 29.576019 -106.439247 22,275 323 401 -4672
2021-05-03 17:36:12 GMT 29.561234 -106.424614 23,200 314 391 -5568
2021-05-03 17:36:01 GMT 29.547455 -106.404594 24,475 300 373 -6336
2021-05-03 17:35:49 GMT 29.538931 -106.386322 25,550 292 363 -6016
2021-05-03 17:35:39 GMT 29.533438 -106.368172 26,500 284 355 -5248
2021-05-03 17:35:30 GMT 29.530243 -106.348763 27,325 276 352 -4352
2021-05-03 17:35:20 GMT 29.529482 -106.332848 28,100 267 353 -3904
2021-05-03 17:35:17 GMT 29.529648 -106.327324 28,100 267 353 -3904
2021-05-03 17:35:09 GMT 29.531343 -106.310493 28,675 258 355 -3776
2021-05-03 17:34:57 GMT 29.536184 -106.289764 29,400 250 359 -3840
2021-05-03 17:34:49 GMT 29.541166 -106.276031 29,900 244 362 -3968
2021-05-03 17:34:46 GMT 29.543060 -106.271706 30,075 242 362 -4032
2021-05-03 17:34:37 GMT 29.551361 -106.255890 30,750 235 366 -4352
2021-05-03 17:34:26 GMT 29.562347 -106.240051 31,550 226 370 -4800
2021-05-03 17:34:17 GMT 29.576111 -106.225327 32,450 218 373 -4992
2021-05-03 17:34:06 GMT 29.590279 -106.213989 33,300 210 378 -5120
2021-05-03 17:33:56 GMT 29.606461 -106.204414 34,175 203 381 -5248
2021-05-03 17:33:44 GMT 29.625147 -106.196968 35,150 195 385 -4992
2021-05-03 17:33:34 GMT 29.643301 -106.192719 35,900 188 392 -3840
2021-05-03 17:33:24 GMT 29.662388 -106.190887 36,500 181 403 -3328
2021-05-03 17:33:13 GMT 29.681707 -106.191803 37,025 173 417 -3200
2021-05-03 17:33:01 GMT 29.716063 -106.198692 37,975 167 432 -3136
2021-05-03 17:32:53 GMT 29.721451 -106.200027 38,125 168 433 -3008
2021-05-03 17:32:42 GMT 29.742411 -106.205101 38,600 168 437 -2240
2021-05-03 17:32:30 GMT 29.777435 -106.213547 38,975 168 442 -320
2021-05-03 17:32:21 GMT 29.785147 -106.215446 39,000 168 442 -64
2021-05-03 17:32:12 GMT 29.805084 -106.220261 39,000 168 442 0
2021-05-03 17:31:58 GMT 29.840031 -106.228798 39,000 167 441 0
2021-05-03 17:31:49 GMT 29.847931 -106.230713 39,000 167 441 0
2021-05-03 17:31:40 GMT 29.866659 -106.235260 39,000 167 441 0
2021-05-03 17:31:29 GMT 29.888445 -106.240540 39,000 167 441 0
2021-05-03 17:31:23 GMT 29.900345 -106.243446 39,000 167 441 0
2021-05-03 17:31:19 GMT 29.909317 -106.245667 39,000 167 440 64
2021-05-03 17:31:08 GMT 29.930695 -106.250877 39,000 167 441 0
2021-05-03 17:30:57 GMT 29.952595 -106.256195 39,000 168 440 -64
2021-05-03 17:30:54 GMT 29.958786 -106.257675 39,000 168 440 0
2021-05-03 17:30:46 GMT 29.974380 -106.261467 39,000 168 440 0
2021-05-03 17:30:35 GMT 29.995834 -106.266716 39,000 168 440 64
2021-05-03 17:30:28 GMT 30.013412 -106.270966 39,000 168 440 0
2021-05-03 17:30:23 GMT 30.019676 -106.272507 39,000 167 440 0
2021-05-03 17:30:17 GMT 30.033037 -106.275803 39,000 167 440 0
2021-05-03 17:30:13 GMT 30.039551 -106.277374 39,000 167 440 0
2021-05-03 17:30:07 GMT 30.054590 -106.281021 39,000 167 440 0
2021-05-03 17:30:03 GMT 30.060699 -106.282547 39,000 167 440 0
2021-05-03 17:29:55 GMT 30.075439 -106.286156 39,000 167 440 -64
2021-05-03 17:29:52 GMT 30.081665 -106.287659 39,000 167 440 0
2021-05-03 17:29:46 GMT 30.095510 -106.291077 39,000 167 440 0
2021-05-03 17:29:41 GMT 30.103409 -106.292992 39,000 167 440 -64
2021-05-03 17:29:35 GMT 30.116505 -106.296188 39,000 167 440 -64
2021-05-03 17:29:31 GMT 30.124699 -106.298218 39,000 167 440 0
2021-05-03 17:29:24 GMT 30.137686 -106.301407 39,000 167 440 0
2021-05-03 17:29:20 GMT 30.146856 -106.303658 39,000 167 441 0
2021-05-03 17:29:15 GMT 30.157890 -106.306290 39,000 167 441 0
2021-05-03 17:29:09 GMT 30.168549 -106.308937 39,000 167 440 0
2021-05-03 17:29:04 GMT 30.178839 -106.311455 39,000 167 440 64
2021-05-03 17:28:58 GMT 30.189148 -106.313995 39,000 167 440 64
2021-05-03 17:28:54 GMT 30.199951 -106.316635 39,000 167 440 64
2021-05-03 17:28:49 GMT 30.209003 -106.318871 39,000 167 440 0
2021-05-03 17:28:43 GMT 30.220827 -106.321732 39,000 167 440 0
2021-05-03 17:28:38 GMT 30.230713 -106.324120 39,000 167 440 0
2021-05-03 17:28:32 GMT 30.241882 -106.326866 39,000 167 440 0
2021-05-03 17:28:27 GMT 30.252274 -106.329399 39,000 167 439 0
2021-05-03 17:28:22 GMT 30.263330 -106.332108 39,000 167 440 0
2021-05-03 17:28:17 GMT 30.271709 -106.334198 39,000 167 439 0
2021-05-03 17:28:11 GMT 30.283356 -106.337044 39,000 167 439 0
2021-05-03 17:28:07 GMT 30.292612 -106.339310 39,000 167 439 0
2021-05-03 17:28:02 GMT 30.304092 -106.342110 39,000 167 439 0
2021-05-03 17:27:51 GMT 30.324966 -106.347282 39,000 167 439 64
2021-05-03 17:27:45 GMT 30.334717 -106.349648 39,000 167 439 0
2021-05-03 17:27:40 GMT 30.345703 -106.352341 39,000 167 439 0
2021-05-03 17:27:35 GMT 30.355551 -106.354744 39,000 167 439 0
2021-05-03 17:27:30 GMT 30.366304 -106.357437 39,000 167 439 0
2021-05-03 17:27:24 GMT 30.376785 -106.359985 39,000 167 440 0
2021-05-03 17:27:19 GMT 30.387625 -106.362656 39,000 167 440 0
2021-05-03 17:27:13 GMT 30.398895 -106.365425 39,000 167 440 0
2021-05-03 17:27:10 GMT 30.408096 -106.367691 39,000 167 440 0
2021-05-03 17:26:58 GMT 30.428833 -106.372803 39,000 167 440 0
2021-05-03 17:26:53 GMT 30.438812 -106.375229 39,000 167 440 -64
2021-05-03 17:26:49 GMT 30.449306 -106.377815 39,000 167 440 0
2021-05-03 17:26:43 GMT 30.459778 -106.380402 39,000 167 439 0
2021-05-03 17:26:38 GMT 30.470255 -106.382980 39,000 167 439 0
2021-05-03 17:26:32 GMT 30.480776 -106.385612 39,000 167 439 -64
2021-05-03 17:26:27 GMT 30.491821 -106.388313 39,000 167 439 0
2021-05-03 17:26:22 GMT 30.501307 -106.390671 39,000 167 438 0
2021-05-03 17:26:17 GMT 30.513224 -106.393631 39,000 167 438 0
2021-05-03 17:26:11 GMT 30.523270 -106.396072 39,000 167 438 0
2021-05-03 17:26:07 GMT 30.531784 -106.398170 39,000 167 438 0
2021-05-03 17:26:00 GMT 30.543995 -106.401215 39,000 167 438 0
2021-05-03 17:25:57 GMT 30.552561 -106.403305 39,000 167 438 0
2021-05-03 17:25:50 GMT 30.565454 -106.406487 39,000 167 438 64
2021-05-03 17:25:45 GMT 30.574493 -106.408730 39,000 167 438 0
2021-05-03 17:25:39 GMT 30.586309 -106.411652 39,000 168 438 0
2021-05-03 17:25:36 GMT 30.594360 -106.413628 39,000 168 438 0
2021-05-03 17:25:25 GMT 30.615005 -106.418747 39,000 167 438 0
2021-05-03 17:25:19 GMT 30.627043 -106.421707 39,000 167 438 0
2021-05-03 17:25:15 GMT 30.636213 -106.423958 39,000 167 438 0
2021-05-03 17:25:08 GMT 30.649109 -106.427200 39,000 167 438 -64
2021-05-03 17:25:04 GMT 30.658279 -106.429451 39,000 167 438 0
2021-05-03 17:24:57 GMT 30.669172 -106.432144 39,000 167 438 0
2021-05-03 17:24:51 GMT 30.682114 -106.435326 39,000 167 437 0
2021-05-03 17:24:43 GMT 30.697151 -106.439064 39,000 167 437 64
2021-05-03 17:24:36 GMT 30.711914 -106.442711 39,000 167 437 0
2021-05-03 17:24:33 GMT 30.717865 -106.444160 39,000 167 436 0
2021-05-03 17:24:26 GMT 30.731600 -106.447578 39,000 167 436 0
2021-05-03 17:24:23 GMT 30.738419 -106.449280 39,000 167 435 0
2021-05-03 17:24:16 GMT 30.751465 -106.452515 39,000 167 435 0
2021-05-03 17:24:13 GMT 30.758833 -106.454330 39,000 167 434 0
2021-05-03 17:24:05 GMT 30.772659 -106.457741 39,000 167 434 0
2021-05-03 17:24:02 GMT 30.779921 -106.459549 39,000 167 433 0
2021-05-03 17:23:55 GMT 30.793467 -106.462906 39,000 167 433 0
2021-05-03 17:23:52 GMT 30.801407 -106.464897 39,000 167 433 0
2021-05-03 17:23:41 GMT 30.820496 -106.469635 39,000 167 433 0
2021-05-03 17:23:33 GMT 30.835318 -106.473282 39,000 167 433 0
2021-05-03 17:23:30 GMT 30.840998 -106.474716 39,000 167 433 0
2021-05-03 17:23:21 GMT 30.861694 -106.479866 39,000 167 433 0
2021-05-03 17:23:12 GMT 30.876284 -106.483505 39,000 167 433 0
2021-05-03 17:23:09 GMT 30.882381 -106.485039 39,000 167 433 0
2021-05-03 17:23:00 GMT 30.902069 -106.489937 39,000 167 432 -64
2021-05-03 17:22:52 GMT 30.917065 -106.493668 39,000 167 432 -64
2021-05-03 17:22:49 GMT 30.922668 -106.495056 39,000 167 432 0
2021-05-03 17:22:38 GMT 30.944183 -106.500389 39,000 167 431 0
2021-05-03 17:22:32 GMT 30.955536 -106.503242 39,000 167 431 0
2021-05-03 17:22:28 GMT 30.963135 -106.505127 39,000 167 431 64
2021-05-03 17:22:21 GMT 30.976044 -106.508354 39,000 167 430 64
2021-05-03 17:22:18 GMT 30.983459 -106.510185 39,000 167 430 64
2021-05-03 17:22:08 GMT 31.004023 -106.515366 39,000 167 431 64
2021-05-03 17:21:59 GMT 31.020126 -106.519348 39,000 167 431 0
2021-05-03 17:21:56 GMT 31.025110 -106.520584 39,000 167 431 -64
2021-05-03 17:21:47 GMT 31.044754 -106.525482 39,000 167 431 -64
2021-05-03 17:21:38 GMT 31.060181 -106.529305 39,000 167 431 -64
2021-05-03 17:21:35 GMT 31.065750 -106.530685 39,000 167 430 0
2021-05-03 17:21:28 GMT 31.080555 -106.534370 39,000 167 430 0
2021-05-03 17:21:25 GMT 31.085443 -106.535576 39,000 167 430 0
2021-05-03 17:21:19 GMT 31.098038 -106.538734 39,000 167 430 0
2021-05-03 17:21:16 GMT 31.105694 -106.540634 39,000 167 430 0
2021-05-03 17:21:07 GMT 31.122080 -106.544754 39,000 167 430 0
2021-05-03 17:21:03 GMT 31.129108 -106.546509 39,000 167 430 0
2021-05-03 17:20:58 GMT 31.139257 -106.549034 39,000 167 430 0
2021-05-03 17:20:55 GMT 31.146744 -106.550903 39,000 167 431 0
2021-05-03 17:20:47 GMT 31.159740 -106.554146 39,000 167 431 0
2021-05-03 17:20:44 GMT 31.166885 -106.555908 39,000 167 431 0
2021-05-03 17:20:37 GMT 31.180161 -106.559250 39,000 167 431 0
2021-05-03 17:20:33 GMT 31.187113 -106.561012 39,000 167 431 0
2021-05-03 17:20:27 GMT 31.200119 -106.564262 39,000 167 432 0
2021-05-03 17:20:23 GMT 31.208061 -106.566284 39,000 167 432 0
2021-05-03 17:20:16 GMT 31.221329 -106.569580 39,000 167 432 0
2021-05-03 17:20:13 GMT 31.227722 -106.571205 39,000 167 432 0
2021-05-03 17:20:06 GMT 31.240927 -106.574524 39,000 167 432 0
2021-05-03 17:20:03 GMT 31.248093 -106.576324 39,000 167 432 0
2021-05-03 17:19:55 GMT 31.261923 -106.579796 39,000 167 432 0
2021-05-03 17:19:51 GMT 31.270906 -106.582047 39,000 167 433 0
2021-05-03 17:19:45 GMT 31.282125 -106.584854 39,000 167 433 0
2021-05-03 17:19:42 GMT 31.289474 -106.586716 39,000 167 433 0
2021-05-03 17:19:34 GMT 31.302517 -106.590012 39,000 167 433 0
2021-05-03 17:19:31 GMT 31.310120 -106.591888 39,000 167 434 0
2021-05-03 17:19:23 GMT 31.325560 -106.595779 39,000 167 434 0
2021-05-03 17:19:20 GMT 31.330765 -106.597054 39,000 167 434 0
2021-05-03 17:19:11 GMT 31.351364 -106.602226 39,000 167 434 0
2021-05-03 17:19:03 GMT 31.364849 -106.605614 39,000 167 434 0
2021-05-03 17:19:00 GMT 31.370762 -106.607101 39,000 167 434 0
2021-05-03 17:18:52 GMT 31.386683 -106.611107 39,000 167 434 0
2021-05-03 17:18:49 GMT 31.394363 -106.613029 39,000 167 434 0
2021-05-03 17:18:42 GMT 31.405582 -106.615829 39,000 167 434 0
2021-05-03 17:18:38 GMT 31.413635 -106.617867 39,000 167 435 0
2021-05-03 17:18:31 GMT 31.426941 -106.621185 39,000 167 435 0
2021-05-03 17:18:28 GMT 31.433142 -106.622757 39,000 167 436 -64
2021-05-03 17:18:21 GMT 31.446968 -106.626266 39,000 167 435 -64
2021-05-03 17:18:18 GMT 31.453299 -106.627861 39,000 167 435 0
2021-05-03 17:18:10 GMT 31.467871 -106.631546 39,000 167 435 0
2021-05-03 17:18:07 GMT 31.474869 -106.633301 39,000 167 435 0
2021-05-03 17:17:58 GMT 31.494310 -106.638191 39,000 167 435 64
2021-05-03 17:17:49 GMT 31.509300 -106.641983 39,000 167 436 0
2021-05-03 17:17:44 GMT 31.519684 -106.644554 39,000 167 436 0
2021-05-03 17:17:37 GMT 31.536022 -106.648628 39,000 167 436 0
2021-05-03 17:17:26 GMT 31.556671 -106.653816 39,000 167 437 0
2021-05-03 17:17:18 GMT 31.571030 -106.657417 39,000 167 437 0
2021-05-03 17:17:15 GMT 31.576859 -106.658936 39,000 167 437 0
2021-05-03 17:17:08 GMT 31.591553 -106.662598 39,000 167 437 0
2021-05-03 17:17:05 GMT 31.598694 -106.664375 39,000 167 437 0
2021-05-03 17:16:57 GMT 31.612564 -106.667824 39,000 167 437 0
2021-05-03 17:16:54 GMT 31.618286 -106.669273 39,000 167 438 0
2021-05-03 17:16:45 GMT 31.638437 -106.674278 39,000 168 438 0
2021-05-03 17:16:37 GMT 31.653259 -106.678001 39,000 168 439 0
2021-05-03 17:16:34 GMT 31.659439 -106.679504 39,000 168 439 0
2021-05-03 17:16:26 GMT 31.675446 -106.683510 39,000 167 439 0
2021-05-03 17:16:23 GMT 31.680241 -106.684715 39,000 167 439 0
2021-05-03 17:16:14 GMT 31.700500 -106.689796 39,000 167 440 -64
2021-05-03 17:16:03 GMT 31.721579 -106.695152 39,000 167 442 0
2021-05-03 17:15:53 GMT 31.742575 -106.700645 39,000 167 443 0
2021-05-03 17:15:42 GMT 31.763384 -106.706306 39,000 166 444 0
2021-05-03 17:15:31 GMT 31.785170 -106.712730 39,000 164 446 0
2021-05-03 17:15:21 GMT 31.805008 -106.719215 39,000 163 448 0
2021-05-03 17:15:10 GMT 31.825624 -106.726402 39,000 162 449 0
2021-05-03 17:15:00 GMT 31.847397 -106.734482 39,000 162 451 0
2021-05-03 17:14:51 GMT 31.863556 -106.740524 39,000 162 451 0
2021-05-03 17:14:47 GMT 31.871475 -106.743492 39,000 162 451 0
2021-05-03 17:14:40 GMT 31.888144 -106.749725 39,000 162 451 64
2021-05-03 17:14:28 GMT 31.909231 -106.757629 39,000 162 452 64
2021-05-03 17:14:18 GMT 31.929703 -106.765305 39,000 162 453 64
2021-05-03 17:14:09 GMT 31.950430 -106.773094 39,000 162 454 0
2021-05-03 17:13:57 GMT 31.971891 -106.781113 39,000 162 455 -64
2021-05-03 17:13:48 GMT 31.993212 -106.789124 39,000 162 455 -64
2021-05-03 17:13:39 GMT 32.014114 -106.796921 39,000 162 455 -64
2021-05-03 17:13:26 GMT 32.033619 -106.804260 39,000 162 455 0
2021-05-03 17:13:15 GMT 32.055405 -106.812431 39,000 162 455 0
2021-05-03 17:13:05 GMT 32.075607 -106.820068 39,000 162 456 64
2021-05-03 17:12:55 GMT 32.096745 -106.828026 39,000 162 456 64
2021-05-03 17:12:44 GMT 32.118027 -106.835999 39,000 162 457 64
2021-05-03 17:12:34 GMT 32.138855 -106.843857 39,000 162 459 0
2021-05-03 17:12:23 GMT 32.160370 -106.851982 39,000 162 461 0
2021-05-03 17:12:13 GMT 32.182114 -106.860168 39,000 162 462 0
2021-05-03 17:12:02 GMT 32.204231 -106.868500 39,000 162 462 -64
2021-05-03 17:11:52 GMT 32.225273 -106.876457 39,000 162 462 0
2021-05-03 17:11:41 GMT 32.246689 -106.884529 39,000 162 462 0
2021-05-03 17:11:31 GMT 32.267807 -106.892471 39,000 162 462 0
2021-05-03 17:11:21 GMT 32.288727 -106.900337 39,000 162 462 0
2021-05-03 17:11:10 GMT 32.310745 -106.908691 39,000 162 462 -64
2021-05-03 17:10:59 GMT 32.332157 -106.916756 39,000 162 462 0
2021-05-03 17:10:49 GMT 32.352631 -106.924492 39,000 162 462 0
2021-05-03 17:10:39 GMT 32.374191 -106.932678 39,000 162 462 0
2021-05-03 17:10:28 GMT 32.395515 -106.940750 39,000 162 462 -64
2021-05-03 17:10:18 GMT 32.438763 -106.957176 39,000 162 464 0
2021-05-03 17:10:07 GMT 32.438763 -106.957176 39,000 162 463 64
2021-05-03 17:10:00 GMT 32.452869 -106.962502 39,000 162 464 0
2021-05-03 17:09:57 GMT 32.459702 -106.965141 39,000 162 464 0
2021-05-03 17:09:46 GMT 32.480705 -106.973091 39,000 162 465 0
2021-05-03 17:09:38 GMT 32.500259 -106.980522 39,000 162 465 -64
2021-05-03 17:09:35 GMT 32.505386 -106.982498 39,000 162 465 -64
2021-05-03 17:09:25 GMT 32.523834 -106.989532 39,000 162 465 0
2021-05-03 17:09:15 GMT 32.544937 -106.997551 39,000 162 465 0
2021-05-03 17:09:04 GMT 32.567619 -107.006104 39,000 162 465 0
2021-05-03 17:08:54 GMT 32.588150 -107.013901 39,000 162 466 0
2021-05-03 17:08:44 GMT 32.609161 -107.021889 39,000 162 465 0
2021-05-03 17:08:33 GMT 32.631676 -107.030487 39,000 162 466 0
2021-05-03 17:08:25 GMT 32.649216 -107.037155 39,000 162 466 0
2021-05-03 17:08:22 GMT 32.653564 -107.038803 39,000 162 466 0
2021-05-03 17:08:12 GMT 32.673935 -107.046555 39,000 162 467 0
2021-05-03 17:08:02 GMT 32.695953 -107.055008 39,000 162 467 0
2021-05-03 17:07:54 GMT 32.713562 -107.061714 39,000 162 467 0
2021-05-03 17:07:51 GMT 32.717472 -107.063171 39,000 162 467 0
2021-05-03 17:07:43 GMT 32.734974 -107.069893 39,000 162 467 0
2021-05-03 17:07:40 GMT 32.739536 -107.071579 39,000 162 467 0
2021-05-03 17:07:30 GMT 32.759995 -107.079399 39,000 162 466 64
2021-05-03 17:07:20 GMT 32.781712 -107.087723 39,000 162 467 64
2021-05-03 17:07:09 GMT 32.804260 -107.096321 39,000 162 467 0
2021-05-03 17:06:59 GMT 32.825272 -107.104340 39,000 162 467 0
2021-05-03 17:06:49 GMT 32.846054 -107.112305 39,000 162 467 0
2021-05-03 17:06:38 GMT 32.868484 -107.120872 39,000 162 467 0
2021-05-03 17:06:35 GMT 32.873428 -107.122795 39,000 162 467 0
2021-05-03 17:06:27 GMT 32.889908 -107.129059 39,000 162 467 0
2021-05-03 17:06:17 GMT 32.932823 -107.145569 39,000 162 467 0
2021-05-03 17:06:07 GMT 32.932823 -107.145569 39,000 162 467 -64
2021-05-03 17:06:01 GMT 32.943420 -107.149605 39,000 162 466 0
2021-05-03 17:05:56 GMT 32.954086 -107.153725 39,000 162 466 0
2021-05-03 17:05:49 GMT 32.969414 -107.159576 39,000 162 466 0
2021-05-03 17:05:46 GMT 32.975876 -107.162071 39,000 162 466 0
2021-05-03 17:05:35 GMT 32.997158 -107.170288 39,000 161 465 0
2021-05-03 17:05:25 GMT 33.018173 -107.178391 39,000 161 466 0
2021-05-03 17:05:18 GMT 33.034195 -107.184593 39,000 161 466 0
2021-05-03 17:05:14 GMT 33.040871 -107.187218 39,000 161 466 0
2021-05-03 17:05:04 GMT 33.061111 -107.195030 39,000 161 467 0
2021-05-03 17:04:53 GMT 33.083084 -107.203598 39,000 161 467 0
2021-05-03 17:04:43 GMT 33.104366 -107.211876 39,000 161 467 0
2021-05-03 17:04:33 GMT 33.125885 -107.220192 39,000 161 468 0
2021-05-03 17:04:22 GMT 33.147568 -107.228638 39,000 161 468 0
2021-05-03 17:04:11 GMT 33.169281 -107.237053 39,000 161 468 0
2021-05-03 17:04:01 GMT 33.190582 -107.245285 39,000 162 467 0
2021-05-03 17:03:51 GMT 33.211716 -107.253372 39,000 162 466 0
2021-05-03 17:03:43 GMT 33.228104 -107.259575 39,000 162 467 64
2021-05-03 17:03:39 GMT 33.238625 -107.263443 39,000 163 466 0
2021-05-03 17:03:30 GMT 33.254917 -107.269333 39,000 163 466 64
2021-05-03 17:03:27 GMT 33.261246 -107.271500 39,000 164 465 64
2021-05-03 17:03:17 GMT 33.283592 -107.278748 39,000 166 464 -64
2021-05-03 17:03:07 GMT 33.303360 -107.284409 39,000 167 463 0
2021-05-03 17:02:57 GMT 33.325150 -107.289955 39,000 169 462 0
2021-05-03 17:02:48 GMT 33.342251 -107.293884 39,000 169 462 0
2021-05-03 17:02:45 GMT 33.348766 -107.295395 39,000 169 462 0
2021-05-03 17:02:36 GMT 33.370468 -107.300278 39,000 169 461 0
2021-05-03 17:02:24 GMT 33.392387 -107.305260 39,000 169 461 0
2021-05-03 17:02:15 GMT 33.413452 -107.310059 39,000 169 461 -64
2021-05-03 17:02:04 GMT 33.435471 -107.315002 39,000 169 460 0
2021-05-03 17:01:54 GMT 33.457375 -107.320000 39,000 169 460 0
2021-05-03 17:01:43 GMT 33.479763 -107.325050 39,000 169 460 0
2021-05-03 17:01:33 GMT 33.501690 -107.330032 39,000 169 459 0
2021-05-03 17:01:25 GMT 33.517147 -107.333565 39,000 169 459 0
2021-05-03 17:01:22 GMT 33.523544 -107.335052 39,000 169 459 0
2021-05-03 17:01:12 GMT 33.544830 -107.339905 39,000 169 459 0
2021-05-03 17:01:01 GMT 33.567581 -107.345055 39,000 169 459 -64
2021-05-03 17:00:53 GMT 33.583111 -107.348618 39,000 169 459 -64
2021-05-03 17:00:48 GMT 33.595028 -107.351357 39,000 169 459 -64
2021-05-03 17:00:40 GMT 33.610748 -107.354919 39,000 169 458 0
2021-05-03 17:00:32 GMT 33.626682 -107.358566 39,000 169 458 64
2021-05-03 17:00:29 GMT 33.636383 -107.360756 39,000 169 458 0
2021-05-03 17:00:22 GMT 33.648651 -107.363556 39,000 169 458 0
2021-05-03 17:00:11 GMT 33.671173 -107.368713 39,000 169 458 0
2021-05-03 17:00:01 GMT 33.691772 -107.373421 39,000 169 458 0
2021-05-03 16:59:56 GMT 33.702286 -107.375854 39,000 169 458 0
2021-05-03 16:59:50 GMT 33.714993 -107.378716 39,000 169 458 0
2021-05-03 16:59:46 GMT 33.725098 -107.381042 39,000 169 458 0
2021-05-03 16:59:40 GMT 33.735489 -107.383400 39,000 169 458 0
2021-05-03 16:59:29 GMT 33.758606 -107.388725 39,000 169 458 64
2021-05-03 16:59:19 GMT 33.778725 -107.393303 39,000 169 458 0
2021-05-03 16:59:09 GMT 33.800369 -107.398277 39,000 169 458 0
2021-05-03 16:58:57 GMT 33.825554 -107.404060 39,000 169 458 0
2021-05-03 16:58:47 GMT 33.845673 -107.408623 39,000 169 458 0
2021-05-03 16:58:35 GMT 33.870438 -107.414337 39,000 169 457 0
2021-05-03 16:58:25 GMT 33.891750 -107.419228 39,000 169 457 0
2021-05-03 16:58:14 GMT 33.913696 -107.424263 39,000 169 457 64
2021-05-03 16:58:05 GMT 33.935303 -107.429253 39,000 169 457 -64
2021-05-03 16:57:54 GMT 33.957138 -107.434296 39,000 169 458 0
2021-05-03 16:57:44 GMT 33.978790 -107.439285 39,000 169 458 -64
2021-05-03 16:57:33 GMT 34.000359 -107.444229 39,000 169 458 0
2021-05-03 16:57:22 GMT 34.022655 -107.449326 39,000 169 459 0
2021-05-03 16:57:10 GMT 34.048912 -107.455330 39,000 169 458 0
2021-05-03 16:57:01 GMT 34.065720 -107.459183 39,000 169 458 64
2021-05-03 16:56:52 GMT 34.087086 -107.464142 39,000 169 458 64
2021-05-03 16:56:41 GMT 34.108963 -107.469177 39,000 169 459 0
2021-05-03 16:56:38 GMT 34.113945 -107.470322 39,000 169 459 0
2021-05-03 16:56:29 GMT 34.135757 -107.475380 39,000 169 459 64
2021-05-03 16:56:19 GMT 34.154026 -107.479591 39,000 169 459 0
2021-05-03 16:56:10 GMT 34.173569 -107.484123 39,000 169 460 -64
2021-05-03 16:56:03 GMT 34.188629 -107.487602 39,000 169 460 0
2021-05-03 16:56:00 GMT 34.195412 -107.489204 39,000 169 460 0
2021-05-03 16:55:56 GMT 34.201996 -107.490738 39,000 169 460 -64
2021-05-03 16:55:49 GMT 34.217384 -107.494293 39,000 169 460 -64
2021-05-03 16:55:46 GMT 34.224880 -107.496017 39,000 169 460 0
2021-05-03 16:55:39 GMT 34.239544 -107.499390 39,000 169 460 0
2021-05-03 16:55:35 GMT 34.245712 -107.500832 39,000 169 460 0
2021-05-03 16:55:28 GMT 34.261185 -107.504417 39,000 169 460 0
2021-05-03 16:55:18 GMT 34.282650 -107.509346 39,000 169 461 0
2021-05-03 16:55:08 GMT 34.304668 -107.514442 39,000 169 461 64
2021-05-03 16:55:04 GMT 34.312317 -107.516190 39,000 169 461 64
2021-05-03 16:54:57 GMT 34.326599 -107.519547 39,000 169 462 64
2021-05-03 16:54:52 GMT 34.337082 -107.521957 39,000 169 463 0
2021-05-03 16:54:47 GMT 34.348068 -107.524536 39,000 169 465 -128
2021-05-03 16:54:44 GMT 34.355667 -107.526329 39,000 169 465 -64
2021-05-03 16:54:35 GMT 34.371006 -107.529884 39,000 169 466 -64
2021-05-03 16:54:31 GMT 34.380970 -107.532181 39,000 169 466 0
2021-05-03 16:54:26 GMT 34.392189 -107.534752 39,000 169 466 64
2021-05-03 16:54:23 GMT 34.399933 -107.536591 39,000 169 466 64
2021-05-03 16:54:16 GMT 34.414021 -107.539848 39,000 169 467 64
2021-05-03 16:54:11 GMT 34.422539 -107.541786 39,000 169 467 0
2021-05-03 16:54:02 GMT 34.444748 -107.546959 39,000 169 468 -64
2021-05-03 16:53:55 GMT 34.458897 -107.550201 39,000 169 468 0
2021-05-03 16:53:50 GMT 34.468300 -107.552429 39,000 169 469 0
2021-05-03 16:53:44 GMT 34.480869 -107.555351 39,000 169 469 0
2021-05-03 16:53:41 GMT 34.489517 -107.557327 39,000 169 470 0
2021-05-03 16:53:33 GMT 34.503204 -107.560524 39,000 169 470 0
2021-05-03 16:53:28 GMT 34.515152 -107.563324 39,000 169 470 0
2021-05-03 16:53:23 GMT 34.525635 -107.565735 39,000 168 471 0
2021-05-03 16:53:12 GMT 34.548340 -107.571060 39,000 168 471 0
2021-05-03 16:53:03 GMT 34.569923 -107.576118 39,000 169 472 0
2021-05-03 16:52:55 GMT 34.587334 -107.580185 39,000 169 473 0
2021-05-03 16:52:51 GMT 34.593475 -107.581596 39,000 169 473 0
2021-05-03 16:52:41 GMT 34.617268 -107.587166 39,000 169 473 64
2021-05-03 16:52:31 GMT 34.638016 -107.592026 39,000 168 474 0
2021-05-03 16:52:21 GMT 34.659538 -107.597122 39,000 169 475 0
2021-05-03 16:52:11 GMT 34.682209 -107.602386 39,000 169 475 0
2021-05-03 16:51:59 GMT 34.706772 -107.608170 39,000 169 476 0
2021-05-03 16:51:50 GMT 34.727325 -107.612930 39,000 169 476 0
2021-05-03 16:51:39 GMT 34.749756 -107.618179 39,000 169 476 0
2021-05-03 16:51:28 GMT 34.772472 -107.623505 39,000 168 476 0
2021-05-03 16:51:19 GMT 34.795120 -107.628853 39,000 168 476 0
2021-05-03 16:51:10 GMT 34.815308 -107.633614 39,000 169 477 0
2021-05-03 16:51:07 GMT 34.818787 -107.634399 39,000 168 477 0
2021-05-03 16:50:58 GMT 34.840668 -107.639618 39,000 169 477 0
2021-05-03 16:50:47 GMT 34.863052 -107.644829 39,000 169 477 0
2021-05-03 16:50:36 GMT 34.885620 -107.650154 39,000 169 477 0
2021-05-03 16:50:26 GMT 34.907730 -107.655365 39,000 169 477 0
2021-05-03 16:50:22 GMT 34.916088 -107.657318 39,000 168 476 0
2021-05-03 16:50:17 GMT 34.928192 -107.660179 39,000 168 476 0
2021-05-03 16:50:14 GMT 34.936665 -107.662186 39,000 168 476 0
2021-05-03 16:50:06 GMT 34.953144 -107.666077 39,000 168 476 0
2021-05-03 16:49:55 GMT 34.976212 -107.671509 39,000 168 476 0
2021-05-03 16:49:45 GMT 34.998734 -107.676781 39,000 169 476 0
2021-05-03 16:49:35 GMT 35.019058 -107.681541 39,000 169 475 0
2021-05-03 16:49:31 GMT 35.027939 -107.683670 39,000 169 475 0
2021-05-03 16:49:24 GMT 35.042942 -107.687187 39,000 169 474 0
2021-05-03 16:49:14 GMT 35.066803 -107.692757 39,000 169 474 -64
2021-05-03 16:49:04 GMT 35.088005 -107.697777 39,000 169 473 0
2021-05-03 16:49:01 GMT 35.092209 -107.698753 39,000 169 473 0
2021-05-03 16:48:53 GMT 35.109192 -107.702789 39,000 169 472 0
2021-05-03 16:48:43 GMT 35.131714 -107.708115 39,000 168 471 0
2021-05-03 16:48:31 GMT 35.156063 -107.713852 39,000 168 471 0
2021-05-03 16:48:22 GMT 35.176826 -107.718773 39,000 168 470 0
2021-05-03 16:48:11 GMT 35.199078 -107.724037 39,000 168 470 0
2021-05-03 16:48:01 GMT 35.222355 -107.729591 39,000 168 469 0
2021-05-03 16:47:50 GMT 35.244373 -107.734795 39,000 168 469 0
2021-05-03 16:47:40 GMT 35.266300 -107.739998 39,000 168 468 0
2021-05-03 16:47:28 GMT 35.289642 -107.745552 39,000 168 468 0
2021-05-03 16:47:19 GMT 35.312164 -107.750931 39,000 169 467 64
2021-05-03 16:47:08 GMT 35.333523 -107.756012 39,000 169 466 0
2021-05-03 16:46:57 GMT 35.357868 -107.761795 39,000 168 465 0
2021-05-03 16:46:35 GMT 35.405865 -107.773247 39,000 168 464 0
2021-05-03 16:46:23 GMT 35.427887 -107.778458 39,000 168 463 0
2021-05-03 16:46:15 GMT 35.447155 -107.783066 39,000 168 463 64
2021-05-03 16:46:04 GMT 35.467964 -107.788094 39,000 168 462 0
2021-05-03 16:45:55 GMT 35.488960 -107.793121 39,000 168 461 0
2021-05-03 16:45:44 GMT 35.510880 -107.798370 39,000 168 460 0
2021-05-03 16:45:34 GMT 35.532806 -107.803574 39,000 168 459 0
2021-05-03 16:45:23 GMT 35.554733 -107.808838 39,000 168 458 0
2021-05-03 16:45:13 GMT 35.576202 -107.813988 39,000 168 457 0
2021-05-03 16:45:01 GMT 35.598633 -107.819366 39,000 168 457 0
2021-05-03 16:44:55 GMT 35.612549 -107.822685 39,000 168 457 0
2021-05-03 16:44:52 GMT 35.619957 -107.824440 39,000 168 458 0
2021-05-03 16:44:41 GMT 35.641479 -107.829613 38,975 168 459 -128
2021-05-03 16:44:30 GMT 35.664871 -107.835220 38,975 168 459 448
2021-05-03 16:44:20 GMT 35.685688 -107.840218 38,825 169 461 896
2021-05-03 16:44:09 GMT 35.707893 -107.845535 38,675 168 462 960
2021-05-03 16:43:59 GMT 35.730057 -107.850838 38,500 168 463 896
2021-05-03 16:43:49 GMT 35.751343 -107.855927 38,350 168 464 768
2021-05-03 16:43:38 GMT 35.774464 -107.861488 38,200 168 465 960
2021-05-03 16:43:27 GMT 35.795975 -107.866631 38,025 168 466 1024
2021-05-03 16:43:18 GMT 35.818451 -107.872063 37,875 168 467 960
2021-05-03 16:43:06 GMT 35.840473 -107.877327 37,750 168 467 448
2021-05-03 16:42:57 GMT 35.862541 -107.882645 37,650 168 466 576
2021-05-03 16:42:45 GMT 35.885101 -107.888084 37,575 168 465 448
2021-05-03 16:42:36 GMT 35.907837 -107.893570 37,500 168 464 320
2021-05-03 16:42:24 GMT 35.930466 -107.899017 37,450 168 462 256
2021-05-03 16:42:15 GMT 35.951889 -107.904221 37,400 168 460 384
2021-05-03 16:42:03 GMT 35.973476 -107.909409 37,325 168 458 576
2021-05-03 16:41:54 GMT 35.994827 -107.914581 37,175 168 458 1024
2021-05-03 16:41:43 GMT 36.016628 -107.919868 36,975 168 459 1216
2021-05-03 16:41:32 GMT 36.040462 -107.925652 36,750 168 461 1152
2021-05-03 16:41:21 GMT 36.060883 -107.930603 36,575 168 462 1088
2021-05-03 16:41:12 GMT 36.082642 -107.935883 36,375 168 462 1024
2021-05-03 16:41:00 GMT 36.107117 -107.941757 36,150 168 463 1216
2021-05-03 16:40:51 GMT 36.126820 -107.946518 36,000 168 463 960
2021-05-03 16:40:40 GMT 36.149048 -107.951942 35,850 168 462 704
2021-05-03 16:40:30 GMT 36.170883 -107.957214 35,725 168 461 768
2021-05-03 16:40:19 GMT 36.193153 -107.962646 35,575 168 460 960
2021-05-03 16:40:09 GMT 36.215195 -107.968079 35,400 168 459 832
2021-05-03 16:39:57 GMT 36.238953 -107.973923 35,250 168 458 1024
2021-05-03 16:39:48 GMT 36.259491 -107.978951 35,075 168 458 832
2021-05-03 16:39:36 GMT 36.281094 -107.984268 35,000 168 457 64
2021-05-03 16:39:27 GMT 36.302505 -107.989525 35,000 168 457 0
2021-05-03 16:39:16 GMT 36.324104 -107.994789 35,000 168 457 0
2021-05-03 16:39:06 GMT 36.346310 -108.000282 35,000 168 457 0
2021-05-03 16:38:54 GMT 36.368145 -108.005653 35,000 168 457 0
2021-05-03 16:38:45 GMT 36.390163 -108.011032 35,000 168 457 0
2021-05-03 16:38:33 GMT 36.412125 -108.016434 35,000 168 458 0
2021-05-03 16:38:24 GMT 36.433830 -108.021729 35,000 168 458 0
2021-05-03 16:38:13 GMT 36.454742 -108.026848 35,000 168 457 0
2021-05-03 16:38:03 GMT 36.476807 -108.032341 35,000 168 458 0
2021-05-03 16:37:51 GMT 36.499374 -108.037857 35,000 168 457 0
2021-05-03 16:37:42 GMT 36.520706 -108.043037 35,000 168 458 0
2021-05-03 16:37:31 GMT 36.542542 -108.048309 35,000 168 458 0
2021-05-03 16:37:21 GMT 36.564503 -108.053635 35,000 169 458 0
2021-05-03 16:37:10 GMT 36.585915 -108.058777 35,000 169 458 0
2021-05-03 16:37:00 GMT 36.608028 -108.064034 35,000 169 458 0
2021-05-03 16:36:48 GMT 36.631817 -108.069649 35,000 169 459 0
2021-05-03 16:36:39 GMT 36.652439 -108.074493 35,000 169 459 0
2021-05-03 16:36:27 GMT 36.675201 -108.079933 35,000 169 459 0
2021-05-03 16:36:18 GMT 36.696293 -108.084953 35,000 168 459 0
2021-05-03 16:36:06 GMT 36.717983 -108.090279 35,000 168 459 0
2021-05-03 16:35:57 GMT 36.740158 -108.096313 35,000 166 461 0
2021-05-03 16:35:45 GMT 36.762070 -108.102661 35,000 166 461 0
2021-05-03 16:35:36 GMT 36.783016 -108.108742 35,000 166 461 0
2021-05-03 16:35:25 GMT 36.804749 -108.115082 35,000 166 461 0
2021-05-03 16:35:15 GMT 36.826584 -108.121490 35,000 166 462 0
2021-05-03 16:35:03 GMT 36.849472 -108.128181 35,000 166 462 0
2021-05-03 16:34:54 GMT 36.870815 -108.134430 35,000 166 462 0
2021-05-03 16:34:42 GMT 36.892879 -108.140877 35,000 166 462 0
2021-05-03 16:34:33 GMT 36.914474 -108.147133 35,000 166 462 0
2021-05-03 16:34:21 GMT 36.937290 -108.153831 35,000 166 462 0
2021-05-03 16:34:12 GMT 36.958008 -108.159874 35,000 166 463 0
2021-05-03 16:34:01 GMT 36.979607 -108.166191 35,000 166 463 0
2021-05-03 16:33:51 GMT 37.001907 -108.172699 35,000 166 463 0
2021-05-03 16:33:40 GMT 37.023415 -108.178970 35,000 166 463 0
2021-05-03 16:33:30 GMT 37.045029 -108.185295 35,000 166 463 0
2021-05-03 16:33:19 GMT 37.067368 -108.191841 35,000 166 463 0
2021-05-03 16:33:09 GMT 37.089294 -108.198326 35,000 166 463 0
2021-05-03 16:32:58 GMT 37.110992 -108.204697 35,000 166 463 0
2021-05-03 16:32:48 GMT 37.134384 -108.211533 35,000 166 464 64
2021-05-03 16:32:36 GMT 37.156357 -108.217964 35,000 166 464 0
2021-05-03 16:32:27 GMT 37.177231 -108.224098 35,000 166 464 0
2021-05-03 16:32:16 GMT 37.199158 -108.230530 35,000 166 464 0
2021-05-03 16:32:06 GMT 37.221954 -108.237244 35,000 166 464 0
2021-05-03 16:31:54 GMT 37.243607 -108.243576 35,000 166 464 0
2021-05-03 16:31:45 GMT 37.264618 -108.249809 35,000 166 464 0
2021-05-03 16:31:34 GMT 37.287086 -108.256409 35,000 166 464 0
2021-05-03 16:31:24 GMT 37.308781 -108.262802 35,000 166 463 0
2021-05-03 16:31:13 GMT 37.330284 -108.269127 35,000 166 463 0
2021-05-03 16:31:02 GMT 37.355331 -108.276535 35,000 166 463 0
2021-05-03 16:30:50 GMT 37.377136 -108.282944 35,000 166 463 0
2021-05-03 16:30:41 GMT 37.399475 -108.289551 35,000 166 464 0
2021-05-03 16:30:30 GMT 37.418701 -108.295219 35,000 166 463 -128
2021-05-03 16:30:25 GMT 37.433121 -108.299484 35,000 166 463 0
2021-05-03 16:30:20 GMT 37.441780 -108.302025 35,000 166 463 0
2021-05-03 16:30:10 GMT 37.463890 -108.308594 35,000 166 462 0
2021-05-03 16:29:58 GMT 37.485725 -108.315048 35,000 166 461 0
2021-05-03 16:29:48 GMT 37.507416 -108.321510 35,000 166 460 0
2021-05-03 16:29:38 GMT 37.529617 -108.328117 35,000 166 460 64
2021-05-03 16:29:27 GMT 37.551315 -108.334541 35,000 166 459 0
2021-05-03 16:29:17 GMT 37.572914 -108.341019 35,000 166 458 64
2021-05-03 16:29:06 GMT 37.595028 -108.347649 35,000 166 457 64
2021-05-03 16:28:56 GMT 37.617554 -108.354355 34,975 166 457 0
2021-05-03 16:28:44 GMT 37.638794 -108.360725 35,025 166 458 -640
2021-05-03 16:28:35 GMT 37.661179 -108.367470 35,200 166 458 -960
2021-05-03 16:28:23 GMT 37.682327 -108.373817 35,375 166 460 -896
2021-05-03 16:28:13 GMT 37.704117 -108.380241 35,525 166 461 -960
2021-05-03 16:28:03 GMT 37.727097 -108.387054 35,700 166 462 -832
2021-05-03 16:27:59 GMT 37.732819 -108.388779 35,750 166 462 -1472
2021-05-03 16:27:52 GMT 37.748245 -108.393394 35,900 166 462 -1472
2021-05-03 16:27:42 GMT 37.770905 -108.400169 36,150 166 461 -1216
2021-05-03 16:27:37 GMT 37.778072 -108.402336 36,225 166 461 -1216
2021-05-03 16:27:29 GMT 37.795296 -108.407471 36,400 166 461 -1280
2021-05-03 16:27:20 GMT 37.817081 -108.413979 36,600 166 460 -1088
2021-05-03 16:27:09 GMT 37.837509 -108.420036 36,775 166 461 -1088
2021-05-03 16:26:58 GMT 37.858932 -108.426407 36,925 166 462 -640
2021-05-03 16:26:48 GMT 37.881638 -108.433250 36,975 166 464 -128
2021-05-03 16:26:37 GMT 37.904480 -108.440086 37,000 166 465 0
2021-05-03 16:26:28 GMT 37.925083 -108.446281 37,000 166 465 -64
2021-05-03 16:26:16 GMT 37.946365 -108.452644 37,000 166 464 0
2021-05-03 16:26:06 GMT 37.970520 -108.459900 37,000 166 464 0
2021-05-03 16:25:55 GMT 37.990814 -108.465988 37,000 166 464 0
2021-05-03 16:25:46 GMT 38.012695 -108.472572 37,000 166 464 0
2021-05-03 16:25:34 GMT 38.034668 -108.479179 37,000 166 464 0
2021-05-03 16:25:24 GMT 38.056824 -108.485840 37,000 166 464 0
2021-05-03 16:25:11 GMT 38.083221 -108.493752 37,000 166 463 0
2021-05-03 16:25:02 GMT 38.103474 -108.499901 37,000 166 463 0
2021-05-03 16:24:54 GMT 38.120789 -108.505157 37,000 166 463 0
2021-05-03 16:24:43 GMT 38.142792 -108.511787 37,000 166 462 0
2021-05-03 16:24:33 GMT 38.164551 -108.518349 37,000 166 462 0
2021-05-03 16:24:22 GMT 38.186428 -108.524979 37,000 166 462 64
2021-05-03 16:24:11 GMT 38.207844 -108.531487 37,000 166 461 -64
2021-05-03 16:24:02 GMT 38.229767 -108.538139 37,000 166 461 0
2021-05-03 16:23:51 GMT 38.251228 -108.544685 37,000 166 461 0
2021-05-03 16:23:41 GMT 38.273014 -108.551254 37,000 166 460 0
2021-05-03 16:23:29 GMT 38.295639 -108.558121 37,000 166 460 64
2021-05-03 16:23:20 GMT 38.316055 -108.564323 37,000 166 460 -64
2021-05-03 16:23:08 GMT 38.338211 -108.571098 37,000 166 460 0
2021-05-03 16:22:54 GMT 38.367329 -108.579910 37,000 166 460 0
2021-05-03 16:22:36 GMT 38.405876 -108.591614 37,000 166 460 0
2021-05-03 16:22:28 GMT 38.424126 -108.597168 37,000 166 459 64
2021-05-03 16:22:14 GMT 38.450684 -108.605286 37,000 166 459 0
2021-05-03 16:22:04 GMT 38.471699 -108.611755 37,000 166 459 0
2021-05-03 16:21:55 GMT 38.489182 -108.617050 37,000 166 459 0
2021-05-03 16:21:40 GMT 38.522278 -108.627197 37,000 166 459 0
2021-05-03 16:21:35 GMT 38.534683 -108.630959 37,000 166 459 -64
2021-05-03 16:21:25 GMT 38.553314 -108.636696 37,000 166 460 0
2021-05-03 16:21:15 GMT 38.574718 -108.643250 37,000 166 460 0
2021-05-03 16:21:03 GMT 38.596848 -108.650009 37,000 166 461 0
2021-05-03 16:20:53 GMT 38.617813 -108.656395 37,000 166 461 0
2021-05-03 16:20:43 GMT 38.640545 -108.663391 37,000 166 462 0
2021-05-03 16:20:33 GMT 38.661774 -108.669861 37,000 166 462 0
2021-05-03 16:20:22 GMT 38.684555 -108.676880 37,000 166 464 0
2021-05-03 16:20:07 GMT 38.713806 -108.685837 37,000 166 465 0
2021-05-03 16:20:00 GMT 38.732025 -108.691444 37,000 166 465 0
2021-05-03 16:19:34 GMT 38.784439 -108.707397 37,000 166 467 -64
2021-05-03 16:19:31 GMT 38.794647 -108.710495 37,000 166 467 0
2021-05-03 16:19:18 GMT 38.818039 -108.717659 37,000 166 468 0
2021-05-03 16:19:09 GMT 38.838997 -108.724060 37,000 166 469 0
2021-05-03 16:18:58 GMT 38.860245 -108.730492 37,000 166 470 0
2021-05-03 16:18:46 GMT 38.887039 -108.738708 37,000 166 471 0
2021-05-03 16:18:31 GMT 38.916870 -108.747810 37,000 166 471 0
2021-05-03 16:18:25 GMT 38.929825 -108.751808 37,000 166 472 0
2021-05-03 16:18:17 GMT 38.948456 -108.757607 37,000 166 471 0
2021-05-03 16:18:05 GMT 38.971985 -108.765007 37,000 165 471 -64
2021-05-03 16:17:56 GMT 38.995010 -108.772354 37,000 165 470 64
2021-05-03 16:17:43 GMT 39.018127 -108.780113 37,000 162 470 0
2021-05-03 16:17:34 GMT 39.038406 -108.789429 37,000 156 470 0
2021-05-03 16:17:22 GMT 39.059608 -108.802734 37,000 149 469 64
2021-05-03 16:17:13 GMT 39.077866 -108.817551 36,975 142 469 -64
2021-05-03 16:17:01 GMT 39.096573 -108.836792 37,000 137 469 -64
2021-05-03 16:16:51 GMT 39.112446 -108.855774 37,000 136 468 0
2021-05-03 16:16:42 GMT 39.129272 -108.875946 37,000 136 466 0
2021-05-03 16:16:31 GMT 39.144939 -108.894775 37,000 136 466 0
2021-05-03 16:16:21 GMT 39.161793 -108.915039 37,000 136 466 0
2021-05-03 16:16:10 GMT 39.178177 -108.934753 37,000 136 466 64
2021-05-03 16:15:58 GMT 39.196892 -108.957336 37,000 136 467 64
2021-05-03 16:15:48 GMT 39.212021 -108.975586 37,000 136 467 0
2021-05-03 16:15:38 GMT 39.228268 -108.995178 37,000 136 468 -64
2021-05-03 16:15:29 GMT 39.244171 -109.014351 37,025 136 469 -64
2021-05-03 16:15:17 GMT 39.261368 -109.035095 37,025 136 470 -64
2021-05-03 16:15:08 GMT 39.277222 -109.054176 37,000 136 474 0
2021-05-03 16:14:56 GMT 39.294022 -109.074478 37,000 136 476 -64
2021-05-03 16:14:46 GMT 39.310619 -109.094604 36,950 136 476 768
2021-05-03 16:14:35 GMT 39.327942 -109.115494 36,775 136 477 960
2021-05-03 16:14:25 GMT 39.344330 -109.135376 36,650 136 477 896
2021-05-03 16:14:16 GMT 39.360989 -109.155518 36,425 136 478 1216
2021-05-03 16:14:05 GMT 39.377518 -109.175560 36,250 136 478 1088
2021-05-03 16:13:55 GMT 39.394413 -109.196045 36,100 136 478 832
2021-05-03 16:13:44 GMT 39.411255 -109.216461 35,900 136 478 1216
2021-05-03 16:13:34 GMT 39.427650 -109.236328 35,700 136 479 1088
2021-05-03 16:13:24 GMT 39.445202 -109.257690 35,550 136 478 704
2021-05-03 16:13:13 GMT 39.461243 -109.277245 35,450 136 476 512
2021-05-03 16:13:03 GMT 39.478180 -109.297905 35,375 136 473 384
2021-05-03 16:12:52 GMT 39.494888 -109.318260 35,250 136 471 960
2021-05-03 16:12:41 GMT 39.511368 -109.338387 35,075 136 471 1152
2021-05-03 16:12:31 GMT 39.527710 -109.358330 34,875 136 471 1088
2021-05-03 16:12:21 GMT 39.544327 -109.378632 34,725 136 470 640
2021-05-03 16:12:11 GMT 39.560513 -109.398376 34,625 136 468 832
2021-05-03 16:11:59 GMT 39.577503 -109.419128 34,450 136 466 896
2021-05-03 16:11:50 GMT 39.593857 -109.439232 34,275 136 466 1088
2021-05-03 16:11:38 GMT 39.610832 -109.460022 34,100 136 466 1088
2021-05-03 16:11:29 GMT 39.625683 -109.478271 33,900 136 466 1216
2021-05-03 16:11:18 GMT 39.643047 -109.499512 33,725 136 464 896
2021-05-03 16:11:08 GMT 39.658401 -109.518410 33,525 136 464 1856
2021-05-03 16:10:58 GMT 39.674469 -109.538170 33,175 136 468 1792
2021-05-03 16:10:46 GMT 39.691696 -109.559326 33,000 136 468 192
2021-05-03 16:10:37 GMT 39.707520 -109.578773 32,975 136 468 0
2021-05-03 16:10:25 GMT 39.724888 -109.600159 32,975 136 470 -64
2021-05-03 16:09:48 GMT 39.783031 -109.671814 32,975 136 472 0
2021-05-03 16:09:40 GMT 39.798981 -109.691444 32,975 136 473 -64
2021-05-03 16:09:34 GMT 39.806580 -109.700813 33,000 136 473 0
2021-05-03 16:09:24 GMT 39.824066 -109.722366 32,975 136 474 64
2021-05-03 16:09:13 GMT 39.839630 -109.741653 32,975 136 475 0
2021-05-03 16:09:02 GMT 39.856396 -109.762390 32,975 136 475 0
2021-05-03 16:08:53 GMT 39.873573 -109.783691 33,000 136 475 64
2021-05-03 16:08:40 GMT 39.892456 -109.807037 33,000 136 476 64
2021-05-03 16:08:31 GMT 39.907928 -109.826202 33,000 136 476 0
2021-05-03 16:08:20 GMT 39.924500 -109.846802 33,000 136 477 -64
2021-05-03 16:08:09 GMT 39.940517 -109.866653 32,975 136 476 64
2021-05-03 16:07:59 GMT 39.957600 -109.887878 32,975 136 477 -64
2021-05-03 16:07:48 GMT 39.974174 -109.908478 32,975 136 477 -128
2021-05-03 16:07:39 GMT 39.990509 -109.928833 32,975 136 477 0
2021-05-03 16:07:27 GMT 40.008110 -109.950798 32,975 136 476 128
2021-05-03 16:07:18 GMT 40.023846 -109.970520 32,975 136 476 64
2021-05-03 16:07:06 GMT 40.040882 -109.991745 32,975 136 476 0
2021-05-03 16:06:56 GMT 40.057571 -110.012573 32,975 136 478 -64
2021-05-03 16:06:46 GMT 40.075798 -110.035378 33,000 136 478 0
2021-05-03 16:06:35 GMT 40.091717 -110.055290 32,975 136 478 -64
2021-05-03 16:06:25 GMT 40.109390 -110.077393 33,000 136 479 0
2021-05-03 16:06:15 GMT 40.123512 -110.095116 32,975 135 480 0
2021-05-03 16:06:05 GMT 40.141022 -110.117126 32,975 135 479 0
2021-05-03 16:05:53 GMT 40.158188 -110.138794 32,975 135 478 -64
2021-05-03 16:05:43 GMT 40.173790 -110.158600 32,975 135 477 64
2021-05-03 16:05:34 GMT 40.190128 -110.179199 32,975 136 476 0
2021-05-03 16:05:22 GMT 40.207672 -110.201294 32,975 136 476 -64
2021-05-03 16:05:13 GMT 40.223087 -110.220711 33,000 136 475 0
2021-05-03 16:05:01 GMT 40.240173 -110.242188 32,975 136 475 -64
2021-05-03 16:04:51 GMT 40.256512 -110.262657 32,975 136 475 0
2021-05-03 16:04:41 GMT 40.273178 -110.283508 32,975 136 476 0
2021-05-03 16:04:28 GMT 40.292454 -110.307541 32,975 136 476 64
2021-05-03 16:04:21 GMT 40.305161 -110.323395 32,950 136 474 768
2021-05-03 16:04:08 GMT 40.324154 -110.347176 32,725 136 474 1344
2021-05-03 16:04:00 GMT 40.338352 -110.365158 32,525 135 474 1344
2021-05-03 16:03:49 GMT 40.354973 -110.386383 32,300 135 474 1280
2021-05-03 16:03:39 GMT 40.370956 -110.407410 32,075 133 473 1344
2021-05-03 16:03:27 GMT 40.387939 -110.430969 31,800 131 473 1344
2021-05-03 16:03:17 GMT 40.402176 -110.452545 31,600 128 472 1152
2021-05-03 16:02:52 GMT 40.431923 -110.514656 31,000 111 467 1472
2021-05-03 16:02:47 GMT 40.436920 -110.529297 30,850 111 467 1472
2021-05-03 16:02:29 GMT 40.450195 -110.573608 30,550 111 468 1728
2021-05-03 16:02:21 GMT 40.456364 -110.594437 30,150 111 470 1792
2021-05-03 16:02:14 GMT 40.461857 -110.613037 29,950 111 472 1536
2021-05-03 16:02:04 GMT 40.469879 -110.640076 29,725 111 470 1280
2021-05-03 16:01:55 GMT 40.478073 -110.667725 29,475 111 470 1280
2021-05-03 16:01:42 GMT 40.486855 -110.697365 29,250 111 469 1280
2021-05-03 16:01:34 GMT 40.493912 -110.721375 29,050 111 468 1152
2021-05-03 16:00:09 GMT 40.559097 -110.942993 27,325 110 455 1536
2021-05-03 16:00:06 GMT 40.560871 -110.948990 27,275 111 454 1408
2021-05-03 16:00:03 GMT 40.563946 -110.959541 27,175 110 452 1408
2021-05-03 15:59:46 GMT 40.575897 -111.000488 26,775 110 452 1664
2021-05-03 15:59:41 GMT 40.579880 -111.014099 26,625 110 451 1472
2021-05-03 15:59:31 GMT 40.587708 -111.040894 26,375 110 449 1408
2021-05-03 15:59:20 GMT 40.595352 -111.067139 26,150 110 448 1472
2021-05-03 15:59:10 GMT 40.603279 -111.094437 25,875 110 446 1536
2021-05-03 15:58:59 GMT 40.610916 -111.120911 25,575 110 444 1664
2021-05-03 15:58:48 GMT 40.619667 -111.151054 25,275 110 443 1536
2021-05-03 15:58:38 GMT 40.626324 -111.174210 25,025 110 441 1600
2021-05-03 15:58:28 GMT 40.634144 -111.201241 24,750 110 439 1408
2021-05-03 15:58:16 GMT 40.641632 -111.227295 24,525 110 436 1344
2021-05-03 15:58:07 GMT 40.649181 -111.253616 24,200 110 434 2112
2021-05-03 15:57:59 GMT 40.653885 -111.269905 23,975 110 435 2112
2021-05-03 15:57:55 GMT 40.656723 -111.279831 23,850 110 434 1856
2021-05-03 15:57:45 GMT 40.664169 -111.305733 23,550 110 432 1728
2021-05-03 15:57:35 GMT 40.671982 -111.332825 23,225 110 430 1536
2021-05-03 15:57:27 GMT 40.676926 -111.349915 23,075 110 427 1152
2021-05-03 15:57:23 GMT 40.679489 -111.358643 23,000 111 425 1024
2021-05-03 15:57:17 GMT 40.684387 -111.374146 22,875 114 423 1600
2021-05-03 15:57:14 GMT 40.687027 -111.381706 22,775 115 423 1728
2021-05-03 15:57:06 GMT 40.692802 -111.397186 22,575 117 422 1856
2021-05-03 15:57:02 GMT 40.696518 -111.406372 22,450 119 421 1856
2021-05-03 15:56:57 GMT 40.701553 -111.418037 22,300 120 420 1856
2021-05-03 15:56:53 GMT 40.706909 -111.429443 22,125 123 420 1856
2021-05-03 15:56:41 GMT 40.718452 -111.451683 21,775 126 418 2048
2021-05-03 15:56:32 GMT 40.730255 -111.472961 21,450 126 415 1600
2021-05-03 15:56:23 GMT 40.739819 -111.490196 21,225 126 413 2112
2021-05-03 15:56:20 GMT 40.742752 -111.495499 21,150 126 413 2048
2021-05-03 15:56:14 GMT 40.750580 -111.509583 20,875 126 412 2304
2021-05-03 15:56:10 GMT 40.754482 -111.516602 20,750 126 412 2304
2021-05-03 15:56:00 GMT 40.766167 -111.537697 20,350 126 411 2240
2021-05-03 15:55:52 GMT 40.773895 -111.551620 20,100 126 410 2176
2021-05-03 15:55:43 GMT 40.785160 -111.572029 19,725 126 409 2240
2021-05-03 15:55:39 GMT 40.789631 -111.580086 19,575 126 408 2304
2021-05-03 15:55:30 GMT 40.798874 -111.596863 19,250 126 407 2240
2021-05-03 15:55:26 GMT 40.803452 -111.605042 19,100 125 406 2240
2021-05-03 15:55:22 GMT 40.808716 -111.614540 18,925 126 405 2240
2021-05-03 15:55:16 GMT 40.815792 -111.627335 18,675 126 404 2240
2021-05-03 15:55:11 GMT 40.820251 -111.635437 18,525 126 403 2240
2021-05-03 15:55:05 GMT 40.827026 -111.647705 18,300 126 402 2176
2021-05-03 15:55:01 GMT 40.831715 -111.656174 18,150 125 401 2048
2021-05-03 15:54:57 GMT 40.836136 -111.664185 18,025 126 399 1984
2021-05-03 15:54:53 GMT 40.839478 -111.670288 17,925 125 398 1984
2021-05-03 15:54:49 GMT 40.844925 -111.680115 17,775 125 396 1792
2021-05-03 15:54:43 GMT 40.850147 -111.689568 17,600 126 394 1920
2021-05-03 15:54:40 GMT 40.854664 -111.697746 17,475 125 393 2048
2021-05-03 15:54:33 GMT 40.861313 -111.709900 17,250 126 390 2112
2021-05-03 15:54:28 GMT 40.865799 -111.717957 17,100 125 388 1920
2021-05-03 15:54:25 GMT 40.870399 -111.726341 16,925 125 386 1664
2021-05-03 15:54:21 GMT 40.876930 -111.739777 16,200 125 339 736
2021-05-03 15:54:20 GMT 40.877838 -111.741470 16,200 125 339 736
2021-05-03 15:54:19 GMT 40.879669 -111.744827 16,200 125 339 736
2021-05-03 15:54:17 GMT 40.880581 -111.746521 16,200 125 339 736
2021-05-03 15:54:16 GMT 40.881500 -111.748199 16,200 125 339 736
2021-05-03 15:54:14 GMT 40.883331 -111.751572 16,200 125 339 736
2021-05-03 15:54:13 GMT 40.885151 -111.754929 16,200 125 339 736
2021-05-03 15:54:11 GMT 40.886070 -111.756622 16,200 125 339 736
2021-05-03 15:54:10 GMT 40.886978 -111.758301 16,200 125 339 736
2021-05-03 15:54:08 GMT 40.888809 -111.761673 16,200 125 339 736
2021-05-03 15:54:07 GMT 40.889721 -111.763351 16,200 125 339 736
2021-05-03 15:54:05 GMT 40.891548 -111.766724 16,200 125 339 736
2021-05-03 15:54:04 GMT 40.892471 -111.768402 16,200 125 339 736
2021-05-03 15:54:03 GMT 40.893379 -111.770088 16,200 125 339 736
2021-05-03 15:54:01 GMT 40.895210 -111.773460 16,200 125 339 736
2021-05-03 15:53:59 GMT 40.897041 -111.776817 16,200 125 339 736
2021-05-03 15:53:58 GMT 40.897949 -111.778511 16,200 125 339 736
2021-05-03 15:53:57 GMT 40.898861 -111.780190 16,200 125 339 736
2021-05-03 15:53:55 GMT 40.900688 -111.783562 16,200 125 339 736
2021-05-03 15:53:54 GMT 40.901600 -111.785248 16,200 125 339 736
2021-05-03 15:53:53 GMT 40.902519 -111.786926 16,200 125 339 736
2021-05-03 15:53:51 GMT 40.904339 -111.790298 16,200 125 339 736
2021-05-03 15:53:50 GMT 40.906471 -111.794167 16,200 125 333 736
2021-05-03 15:53:48 GMT 40.907372 -111.795822 16,200 125 333 736
2021-05-03 15:53:47 GMT 40.909161 -111.799133 16,200 125 333 1280
2021-05-03 15:53:46 GMT 40.910358 -111.801208 16,100 125 328 1280
2021-05-03 15:53:44 GMT 40.911240 -111.802834 16,100 125 328 1280
2021-05-03 15:53:43 GMT 40.912128 -111.804459 16,100 125 328 1280
2021-05-03 15:53:41 GMT 40.913891 -111.807716 16,100 125 328 1280
2021-05-03 15:53:40 GMT 40.914959 -111.809792 16,000 125 324 1280
2021-05-03 15:53:38 GMT 40.916710 -111.812988 16,000 125 324 1280
2021-05-03 15:53:37 GMT 40.917591 -111.814598 16,000 125 324 1280
2021-05-03 15:53:36 GMT 40.919479 -111.818108 16,000 125 320 1280
2021-05-03 15:53:34 GMT 40.920349 -111.819687 16,000 125 320 1280
2021-05-03 15:53:33 GMT 40.921211 -111.821274 16,000 125 320 1280
2021-05-03 15:53:32 GMT 40.922081 -111.822853 16,000 125 320 1280
2021-05-03 15:53:30 GMT 40.924091 -111.826332 15,700 125 316 1280
2021-05-03 15:53:29 GMT 40.924938 -111.827904 15,700 125 316 1280
2021-05-03 15:53:27 GMT 40.926861 -111.831383 15,700 125 312 1280
2021-05-03 15:53:26 GMT 40.927700 -111.832932 15,700 125 312 1280
2021-05-03 15:53:24 GMT 40.929379 -111.836029 15,700 125 312 1280
2021-05-03 15:53:23 GMT 40.930222 -111.837578 15,700 125 312 1280
2021-05-03 15:53:22 GMT 40.932049 -111.841072 15,700 125 308 1280
2021-05-03 15:53:20 GMT 40.932880 -111.842590 15,700 125 308 1280
2021-05-03 15:53:19 GMT 40.933720 -111.844116 15,700 125 308 1280
2021-05-03 15:53:18 GMT 40.934551 -111.845642 15,700 125 308 1280
2021-05-03 15:53:16 GMT 40.936249 -111.849007 15,400 126 306 1280
2021-05-03 15:53:15 GMT 40.937092 -111.850510 15,400 126 306 1280
2021-05-03 15:53:14 GMT 40.938820 -111.853554 15,400 125 308 1280
2021-05-03 15:53:12 GMT 40.939651 -111.855080 15,400 125 308 1280
2021-05-03 15:53:10 GMT 40.941319 -111.858131 15,400 125 308 1280
2021-05-03 15:53:09 GMT 40.942150 -111.859657 15,400 125 308 1280
2021-05-03 15:53:08 GMT 40.943199 -111.861359 15,400 126 302 1280
2021-05-03 15:53:07 GMT 40.944012 -111.862862 15,400 126 302 1280
2021-05-03 15:53:05 GMT 40.945629 -111.865860 15,400 126 302 1280
2021-05-03 15:53:04 GMT 40.947128 -111.869202 15,200 127 299 1280
2021-05-03 15:53:01 GMT 40.949650 -111.873550 15,200 127 299 1280
2021-05-03 15:52:59 GMT 40.950500 -111.875290 15,200 128 296 1280
2021-05-03 15:52:58 GMT 40.951340 -111.876709 15,200 128 296 1280
2021-05-03 15:52:57 GMT 40.953030 -111.879562 15,200 128 296 1280
2021-05-03 15:52:55 GMT 40.953869 -111.880981 15,200 128 296 1280
2021-05-03 15:52:54 GMT 40.954689 -111.882591 15,100 128 294 1280
2021-05-03 15:52:53 GMT 40.956390 -111.885399 15,100 128 294 1280
2021-05-03 15:52:51 GMT 40.957241 -111.886810 15,100 128 294 1280
2021-05-03 15:52:50 GMT 40.958092 -111.888222 11,100 128 294 1280
2021-05-03 15:52:49 GMT 40.958900 -111.889458 11,100 128 298 1280
2021-05-03 15:52:47 GMT 40.960609 -111.892311 14,900 128 298 1280
2021-05-03 15:52:44 GMT 40.964386 -111.897560 14,900 127 294 2048
2021-05-03 15:52:39 GMT 40.968624 -111.904991 14,700 126 290 2304
2021-05-03 15:52:33 GMT 40.973648 -111.913879 14,450 125 288 2688
2021-05-03 15:52:27 GMT 40.976990 -111.920044 14,250 124 288 2752
2021-05-03 15:52:22 GMT 40.980972 -111.927734 14,000 123 287 2688
2021-05-03 15:52:18 GMT 40.984589 -111.934952 13,800 122 284 2432
2021-05-03 15:52:13 GMT 40.987942 -111.941635 13,625 120 282 2368
2021-05-03 15:51:43 GMT 41.004902 -112.018768 11,100 3 248 3360
2021-05-03 15:51:42 GMT 41.003761 -112.018967 11,100 3 248 3360
2021-05-03 15:51:41 GMT 41.002621 -112.019173 11,100 3 248 3360
2021-05-03 15:51:39 GMT 41.000340 -112.019562 11,100 3 248 3360
2021-05-03 15:51:38 GMT 40.999199 -112.019760 11,100 3 248 2496
2021-05-03 15:51:37 GMT 40.996929 -112.020149 11,100 3 248 2496
2021-05-03 15:51:35 GMT 40.994652 -112.020538 11,100 3 248 2496
2021-05-03 15:51:33 GMT 40.993511 -112.020737 11,100 3 248 2496
2021-05-03 15:51:32 GMT 40.992371 -112.020943 11,100 3 248 2496
2021-05-03 15:51:31 GMT 40.991230 -112.021133 11,100 3 248 2496
2021-05-03 15:51:29 GMT 40.988949 -112.021530 11,100 3 248 2496
2021-05-03 15:51:28 GMT 40.987820 -112.021721 11,100 3 248 2496
2021-05-03 15:51:27 GMT 40.986679 -112.021919 11,100 3 248 2496
2021-05-03 15:51:25 GMT 40.984402 -112.022308 11,100 3 248 2496
2021-05-03 15:51:24 GMT 40.983261 -112.022507 11,100 3 248 2496
2021-05-03 15:51:22 GMT 40.980980 -112.022903 11,100 3 248 2496
2021-05-03 15:51:21 GMT 40.979839 -112.023102 11,100 3 248 2496
2021-05-03 15:51:20 GMT 40.977570 -112.023491 11,100 3 248 2496
2021-05-03 15:51:18 GMT 40.976429 -112.023689 11,100 3 248 2496
2021-05-03 15:51:17 GMT 40.975288 -112.023888 11,100 3 248 2496
2021-05-03 15:51:15 GMT 40.973011 -112.024277 11,100 3 248 2496
2021-05-03 15:51:14 GMT 40.971870 -112.024483 11,100 3 248 2496
2021-05-03 15:51:12 GMT 40.969620 -112.028084 11,100 3 248 2496
2021-05-03 15:51:11 GMT 40.968441 -112.027924 10,900 353 256 2496
2021-05-03 15:51:09 GMT 40.966080 -112.027603 10,900 353 256 2496
2021-05-03 15:51:08 GMT 40.964901 -112.027443 10,900 353 256 2496
2021-05-03 15:51:07 GMT 40.963902 -112.028221 10,300 351 262 2496
2021-05-03 15:51:05 GMT 40.961498 -112.027779 10,300 351 262 2496
2021-05-03 15:51:04 GMT 40.960300 -112.027557 10,300 351 262 2496
2021-05-03 15:51:03 GMT 40.957790 -112.027611 10,300 350 261 2496
2021-05-03 15:51:01 GMT 40.956600 -112.027359 10,300 350 261 2496
2021-05-03 15:50:59 GMT 40.954208 -112.026863 10,300 350 261 2496
2021-05-03 15:50:57 GMT 40.951771 -112.026512 10,100 350 261 2496
2021-05-03 15:50:56 GMT 40.950581 -112.026253 10,100 350 261 2496
2021-05-03 15:50:54 GMT 40.946880 -112.025452 9,900 350 258 2496
2021-05-03 15:50:51 GMT 40.944519 -112.024948 9,900 350 258 2496
2021-05-03 15:50:50 GMT 40.943340 -112.024689 9,900 350 258 2496
2021-05-03 15:50:49 GMT 40.942200 -112.024498 9,700 350 259 2496
2021-05-03 15:50:47 GMT 40.939831 -112.023987 9,700 350 259 2496
2021-05-03 15:50:46 GMT 40.938641 -112.023727 9,700 350 259 2496
2021-05-03 15:50:45 GMT 40.937462 -112.023468 9,700 350 259 2496
2021-05-03 15:50:44 GMT 40.935020 -112.023071 9,200 350 258 2496
2021-05-03 15:50:42 GMT 40.933842 -112.022797 9,200 350 258 2496
2021-05-03 15:50:41 GMT 40.932659 -112.022537 9,200 350 258 2496
2021-05-03 15:50:39 GMT 40.930290 -112.021957 9,200 350 258 2496
2021-05-03 15:50:38 GMT 40.929111 -112.021698 9,200 350 258 2496
2021-05-03 15:50:36 GMT 40.926762 -112.021179 9,200 350 258 1120
2021-05-03 15:50:35 GMT 40.925770 -112.021309 9,000 349 264 1120
2021-05-03 15:50:34 GMT 40.924568 -112.021011 9,000 349 264 1120
2021-05-03 15:50:33 GMT 40.922169 -112.020401 9,000 349 264 1120
2021-05-03 15:50:31 GMT 40.920971 -112.020103 9,000 349 264 1120
2021-05-03 15:50:30 GMT 40.918652 -112.019440 8,600 350 263 1120
2021-05-03 15:50:28 GMT 40.917450 -112.019157 8,600 350 263 1120
2021-05-03 15:50:27 GMT 40.916248 -112.018883 8,600 350 263 1120
2021-05-03 15:50:26 GMT 40.914909 -112.018600 8,600 350 256 1120
2021-05-03 15:50:25 GMT 40.912579 -112.018059 8,600 350 256 1120
2021-05-03 15:50:23 GMT 40.911411 -112.017799 8,600 350 256 1120
2021-05-03 15:50:22 GMT 40.910252 -112.017532 8,600 350 256 1120
2021-05-03 15:50:21 GMT 40.908009 -112.016930 8,200 351 254 1120
2021-05-03 15:50:19 GMT 40.905689 -112.016449 8,200 351 254 1120
2021-05-03 15:50:17 GMT 40.903992 -112.015823 8,200 353 233 1120
2021-05-03 15:50:16 GMT 40.902920 -112.015640 8,200 353 233 1120
2021-05-03 15:50:14 GMT 40.900780 -112.015289 8,200 353 233 1120
2021-05-03 15:50:13 GMT 40.899712 -112.015121 8,200 353 233 1120
2021-05-03 15:50:12 GMT 40.898071 -112.014259 7,900 355 218 1120
2021-05-03 15:50:11 GMT 40.897060 -112.014153 7,900 355 218 1120
2021-05-03 15:50:09 GMT 40.895050 -112.013947 7,900 355 218 1120
2021-05-03 15:50:08 GMT 40.894051 -112.013840 7,900 355 218 1120
2021-05-03 15:50:07 GMT 40.891571 -112.013382 7,400 354 208 1120
2021-05-03 15:50:05 GMT 40.890610 -112.013290 7,400 354 208 1120
2021-05-03 15:50:04 GMT 40.889221 -112.013527 7,400 352 232 1120
2021-05-03 15:50:02 GMT 40.887081 -112.013168 7,400 352 232 1120
2021-05-03 15:49:59 GMT 40.884949 -112.012817 7,400 352 232 1120
2021-05-03 15:49:58 GMT 40.884121 -112.012817 6,700 351 246 1120
2021-05-03 15:49:56 GMT 40.880711 -112.012154 6,700 351 244 1120
2021-05-03 15:49:54 GMT 40.879601 -112.011978 6,700 351 245 1120
2021-05-03 15:49:53 GMT 40.878490 -112.011726 6,700 351 245 1120
2021-05-03 15:49:52 GMT 40.876202 -112.011261 6,700 351 243 1120
2021-05-03 15:49:50 GMT 40.875099 -112.011040 6,700 351 243 1120
2021-05-03 15:49:48 GMT 40.872898 -112.010628 6,700 351 244 1120
2021-05-03 15:49:47 GMT 40.871811 -112.010391 6,700 351 247 1120
2021-05-03 15:49:45 GMT 40.869530 -112.009903 6,700 352 243 1120
2021-05-03 15:49:44 GMT 40.868469 -112.009712 6,650 351 246 1120
2021-05-03 15:49:43 GMT 40.867321 -112.009521 6,525 351 244 1120
2021-05-03 15:49:41 GMT 40.865070 -112.009087 6,525 351 241 1120
2021-05-03 15:49:40 GMT 40.863892 -112.008842 6,500 351 232 1120
2021-05-03 15:49:39 GMT 40.862881 -112.008698 6,400 351 240 1120
2021-05-03 15:49:38 GMT 40.861771 -112.008438 6,400 351 237 1120
2021-05-03 15:49:36 GMT 40.859539 -112.008003 6,400 351 230 96
2021-05-03 15:49:35 GMT 40.858528 -112.007820 6,375 351 235 96
2021-05-03 15:49:33 GMT 40.856392 -112.007362 6,300 352 232 96
2021-05-03 15:49:32 GMT 40.855320 -112.007156 6,300 351 230 96
2021-05-03 15:49:31 GMT 40.854240 -112.006943 6,300 352 227 96
2021-05-03 15:49:29 GMT 40.852188 -112.006592 6,250 351 227 96
2021-05-03 15:49:27 GMT 40.850079 -112.006180 6,175 351 221 96
2021-05-03 15:49:26 GMT 40.849091 -112.006020 6,175 350 222 96
2021-05-03 15:49:25 GMT 40.848080 -112.005814 6,175 350 220 96
2021-05-03 15:49:24 GMT 40.846050 -112.005386 6,100 350 215 96
2021-05-03 15:49:23 GMT 40.845051 -112.005173 6,100 351 213 96
2021-05-03 15:49:21 GMT 40.844109 -112.004990 6,075 351 213 96
2021-05-03 15:49:19 GMT 40.842171 -112.004570 6,075 351 211 96
2021-05-03 15:49:18 GMT 40.841190 -112.004341 6,075 352 208 -32
2021-05-03 15:49:17 GMT 40.840191 -112.004128 6,100 352 202 0
2021-05-03 15:49:16 GMT 40.838322 -112.003830 6,050 351 200 2880
2021-05-03 15:49:14 GMT 40.837391 -112.003670 6,000 351 199 2880
2021-05-03 15:49:13 GMT 40.835571 -112.003326 5,950 351 197 2880
2021-05-03 15:49:11 GMT 40.834648 -112.003159 5,950 351 194 2880
2021-05-03 15:49:10 GMT 40.833771 -112.002983 5,950 351 194 2880
2021-05-03 15:49:08 GMT 40.831959 -112.002617 5,950 352 188 2880
2021-05-03 15:49:07 GMT 40.831161 -112.002449 5,875 352 191 2880
2021-05-03 15:49:05 GMT 40.829430 -112.002151 5,875 352 191 2880
2021-05-03 15:49:04 GMT 40.828529 -112.001984 5,800 353 188 2880
2021-05-03 15:49:02 GMT 40.826839 -112.001740 5,650 352 187 2880
2021-05-03 15:49:01 GMT 40.825958 -112.001610 5,650 352 185 2880
2021-05-03 15:49:00 GMT 40.825119 -112.001450 5,650 352 187 2880
2021-05-03 15:48:58 GMT 40.823429 -112.001160 5,400 353 185 2880
2021-05-03 15:48:57 GMT 40.822601 -112.001038 5,400 353 188 2880
2021-05-03 15:48:56 GMT 40.821690 -112.000877 5,400 354 183 2880
2021-05-03 15:48:55 GMT 40.819969 -112.000549 5,400 355 178 2880
2021-05-03 15:48:53 GMT 40.819260 -112.000549 5,350 354 187 2880
2021-05-03 15:48:52 GMT 40.818378 -112.000397 5,350 355 184 2880
2021-05-03 15:48:51 GMT 40.817558 -112.000328 5,200 355 186 2880
2021-05-03 15:48:49 GMT 40.815800 -112.000137 5,200 354 179 2880
2021-05-03 15:48:48 GMT 40.815048 -112.000122 5,000 353 184 2880
2021-05-03 15:48:46 GMT 40.813339 -111.999939 5,000 352 184 2880
2021-05-03 15:48:45 GMT 40.812469 -111.999733 5,000 355 180 2880
2021-05-03 15:48:44 GMT 40.810860 -111.999550 4,325 355 185 2880
2021-05-03 15:48:42 GMT 40.810001 -111.999481 4,325 355 184 2880
2021-05-03 15:48:40 GMT 40.808300 -111.999290 4,325 355 182 2880
2021-05-03 15:48:39 GMT 40.807468 -111.999222 4,325 355 185 2880
2021-05-03 15:48:38 GMT 40.805779 -111.999039 4,325 354 176 2880
2021-05-03 15:48:36 GMT 40.804981 -111.998909 4,325 357 177 32
2021-05-03 15:48:35 GMT 40.804169 -111.998871 4,325 355 178 32
2021-05-03 15:48:33 GMT 40.802490 -111.998772 4,325 351 169 32
2021-05-03 15:48:32 GMT 40.801739 -111.998543 4,325 355 173 32
2021-05-03 15:48:30 GMT 40.800129 -111.998383 4,325 355 174 32
2021-05-03 15:48:29 GMT 40.799320 -111.998306 4,325 354 174 32
2021-05-03 15:48:27 GMT 40.797729 -111.998123 4,325 355 175 32
2021-05-03 15:48:26 GMT 40.796940 -111.998009 4,325 355 175 32
2021-05-03 15:48:24 GMT 40.794559 -111.997772 4,225 355 175 32
2021-05-03 15:48:22 GMT 40.793751 -111.997688 4,225 355 171 -288
2021-05-03 15:48:21 GMT 40.792969 -111.997612 4,225 354 169 -288
2021-05-03 15:48:20 GMT 40.791409 -111.997429 4,225 354 161 -288
2021-05-03 15:48:18 GMT 40.790661 -111.997360 4,250 354 157 32
2021-05-03 15:48:17 GMT 40.789951 -111.997276 4,250 354 155 32
2021-05-03 15:48:16 GMT 40.788528 -111.997108 4,250 354 150 32
2021-05-03 15:48:14 GMT 40.787182 -111.996918 4,250 355 142 32
2021-05-03 15:48:12 GMT 40.786499 -111.996811 4,250 356 137 -288
2021-05-03 15:48:10 GMT 40.785229 -111.996742 4,250 354 128 -288
2021-05-03 15:48:09 GMT 40.784611 -111.996628 4,250 354 123 -288
2021-05-03 15:48:07 GMT 40.783501 -111.996521 4,250 353 116 -288
2021-05-03 15:48:06 GMT 40.782951 -111.996437 0 353 113
2021-05-03 15:48:05 GMT 40.782440 -111.996353 0 354 109
2021-05-03 15:48:04 GMT 40.781422 -111.996201 0 355 100
2021-05-03 15:48:02 GMT 40.780949 -111.996132 0 356 95
2021-05-03 15:48:01 GMT 40.780090 -111.996063 0 356 90
2021-05-03 15:47:59 GMT 40.779671 -111.996017 0 355 87
2021-05-03 15:47:58 GMT 40.779251 -111.995956 0 356 80
2021-05-03 15:47:57 GMT 40.778519 -111.995857 0 358 72
2021-05-03 15:47:55 GMT 40.778191 -111.995857 0 357 67
2021-05-03 15:47:54 GMT 40.777851 -111.995903 0 353 60
2021-05-03 15:47:52 GMT 40.777309 -111.995827 0 353 51
2021-05-03 15:47:51 GMT 40.777050 -111.995819 0 350 46
2021-05-03 15:47:50 GMT 40.776810 -111.995789 0 350 40
2021-05-03 15:47:48 GMT 40.776390 -111.995712 0 349 27
2021-05-03 15:47:47 GMT 40.776272 -111.995659 0 352 25
2021-05-03 15:47:46 GMT 40.776131 -111.995613 0 358 20
2021-05-03 15:47:44 GMT 40.775921 -111.995621 0 352 14
2021-05-03 15:47:43 GMT 40.775848 -111.995651 0 345 14
2021-05-03 15:47:42 GMT 40.775780 -111.995598 0 358 12
2021-05-03 15:47:40 GMT 40.775661 -111.995567 0 1 9
2021-05-03 15:47:39 GMT 40.775631 -111.995590 0 351 9
2021-05-03 15:47:37 GMT 40.775509 -111.995644 0 330 9
2021-05-03 15:47:36 GMT 40.775478 -111.995613 0 333 9
2021-05-03 15:47:34 GMT 40.775391 -111.995552 0 339 4
2021-05-03 15:47:33 GMT 40.775410 -111.995506 0 346 7
2021-05-03 15:47:32 GMT 40.775341 -111.995461 0 336 4
2021-05-03 15:47:29 GMT 40.775311 -111.995552 0 307 7
2021-05-03 15:47:28 GMT 40.775291 -111.995499 0 302 6
2021-05-03 15:47:27 GMT 40.775261 -111.995483 0 298 6
2021-05-03 15:47:25 GMT 40.775211 -111.995438 0 300 7
2021-05-03 15:47:23 GMT 40.775200 -111.995308 0 301 2
2021-05-03 15:47:22 GMT 40.775211 -111.995338 0 285 6
2021-05-03 15:47:21 GMT 40.775181 -111.995331 0 269 8
2021-05-03 15:47:20 GMT 40.775188 -111.995277 0 270 8
2021-05-03 15:47:19 GMT 40.775188 -111.995171 0 267 7
2021-05-03 15:47:17 GMT 40.775181 -111.995110 0 259 5
2021-05-03 15:47:15 GMT 40.775188 -111.995079 0 270 7
2021-05-03 15:47:14 GMT 40.775200 -111.995049 0 269 10
2021-05-03 15:47:13 GMT 40.775188 -111.994980 0 265 9
2021-05-03 15:47:12 GMT 40.775188 -111.994858 0 264 6
2021-05-03 15:47:10 GMT 40.775200 -111.994827 0 269 7
2021-05-03 15:47:09 GMT 40.775200 -111.994751 0 267 10
2021-05-03 15:47:07 GMT 40.775211 -111.994667 0 271 8
2021-05-03 15:47:05 GMT 40.775242 -111.994591 0 273 9
2021-05-03 15:47:04 GMT 40.775219 -111.994499 0 270 6
2021-05-03 15:47:02 GMT 40.775211 -111.994423 0 263 6
2021-05-03 15:47:01 GMT 40.775219 -111.994423 0 258 10
2021-05-03 15:46:59 GMT 40.775188 -111.994301 0 232 11
2021-05-03 15:46:58 GMT 40.775219 -111.994217 0 231 8
2021-05-03 15:46:57 GMT 40.775261 -111.994164 0 233 5
2021-05-03 15:46:56 GMT 40.775269 -111.994164 0 236 9
2021-05-03 15:46:54 GMT 40.775311 -111.994102 0 220 8
2021-05-03 15:46:53 GMT 40.775318 -111.994034 0 195 7
2021-05-03 15:46:51 GMT 40.775398 -111.993958 0 184 3
2021-05-03 15:46:50 GMT 40.775360 -111.993927 0 182 8
2021-05-03 15:46:49 GMT 40.775391 -111.993896 0 180 8
2021-05-03 15:46:47 GMT 40.775478 -111.993912 0 169 6
2021-05-03 15:46:46 GMT 40.775501 -111.993896 0 169 7
2021-05-03 15:46:45 GMT 40.775532 -111.993896 0 181 7
2021-05-03 15:46:43 GMT 40.775600 -111.993950 0 193 6
2021-05-03 15:46:42 GMT 40.775639 -111.993980 0 188 7
2021-05-03 15:46:41 GMT 40.775661 -111.993919 0 173 7
2021-05-03 15:46:39 GMT 40.775761 -111.993896 0 175 4
2021-05-03 15:46:38 GMT 40.775730 -111.993942 0 179 4
2021-05-03 15:46:36 GMT 40.775761 -111.993958 0 183 4
2021-05-03 15:46:35 GMT 40.775810 -111.993988 0 183 2
2021-05-03 15:46:34 GMT 40.775841 -111.993988 0 183 0
2021-05-03 15:46:32 GMT 40.775841 -111.993988 0 183 0
2021-05-03 15:46:31 GMT 40.775841 -111.993973 0 183 0
2021-05-03 15:46:29 GMT 40.775829 -111.993980 0 183 0
2021-05-03 15:46:28 GMT 40.775822 -111.993958 0 183 1
2021-05-03 15:46:27 GMT 40.775791 -111.993973 0 183 2
2021-05-03 15:46:25 GMT 40.775799 -111.993973 0 183 2
2021-05-03 15:46:24 GMT 40.775841 -111.993988 0 183 0
2021-05-03 15:46:23 GMT 40.775841 -111.994003 0 183 2
2021-05-03 15:46:21 GMT 40.775799 -111.993973 0 179 4
2021-05-03 15:46:20 GMT 40.775841 -111.993958 0 179 1
2021-05-03 15:46:16 GMT 40.775860 -111.993973 0 179 0
2021-05-03 15:46:13 GMT 40.775848 -111.993973 0 179 0
2021-05-03 15:46:12 GMT 40.775841 -111.993958 0 179 0
2021-05-03 15:46:10 GMT 40.775848 -111.993958 0 179 0
2021-05-03 15:46:08 GMT 40.775848 -111.993973 0 175 1
2021-05-03 15:46:07 GMT 40.775860 -111.993973 0 169 2
2021-05-03 15:46:05 GMT 40.775841 -111.993950 0 166 1
2021-05-03 15:46:04 GMT 40.775829 -111.993919 0 168 2
2021-05-03 15:46:02 GMT 40.775822 -111.993958 0 168 0
2021-05-03 15:46:01 GMT 40.775822 -111.993973 0 168 1
2021-05-03 15:46:00 GMT 40.775810 -111.993973 0 164 2
2021-05-03 15:45:58 GMT 40.775829 -111.993942 0 161 2
2021-05-03 15:45:56 GMT 40.775848 -111.993942 0 168 2
2021-05-03 15:45:55 GMT 40.775829 -111.993988 0 169 4
2021-05-03 15:45:54 GMT 40.775871 -111.994003 0 169 4
2021-05-03 15:45:52 GMT 40.775890 -111.993980 0 159 4
2021-05-03 15:45:51 GMT 40.775940 -111.993958 0 155 2
2021-05-03 15:45:50 GMT 40.775940 -111.993950 0 154 2
2021-05-03 15:45:49 GMT 40.775940 -111.993942 0 153 0
2021-05-03 15:45:47 GMT 40.775902 -111.993858 0 152 8
2021-05-03 15:45:46 GMT 40.775921 -111.993896 0 154 8
2021-05-03 15:45:45 GMT 40.775990 -111.993973 0 168 6
2021-05-03 15:45:43 GMT 40.776020 -111.993958 0 153 6
2021-05-03 15:45:42 GMT 40.776070 -111.993919 0 154 5
2021-05-03 15:45:40 GMT 40.776100 -111.994034 0 184 4
2021-05-03 15:45:39 GMT 40.776112 -111.994034 0 185 5
2021-05-03 15:45:37 GMT 40.776150 -111.994019 0 179 5
2021-05-03 15:45:36 GMT 40.776138 -111.994011 0 176 9
2021-05-03 15:45:35 GMT 40.776192 -111.994003 0 172 9
2021-05-03 15:45:34 GMT 40.776218 -111.993988 0 171 10
2021-05-03 15:45:32 GMT 40.776299 -111.994019 0 178 10
2021-05-03 15:45:31 GMT 40.776340 -111.994049 0 180 10
2021-05-03 15:45:30 GMT 40.776428 -111.994041 0 173 10
2021-05-03 15:45:28 GMT 40.776489 -111.994034 0 172 8
2021-05-03 15:45:27 GMT 40.776508 -111.994041 0 174 10
2021-05-03 15:45:25 GMT 40.776600 -111.994049 0 182 9
2021-05-03 15:45:24 GMT 40.776630 -111.994087 0 186 10
2021-05-03 15:45:22 GMT 40.776718 -111.994049 0 175 10
2021-05-03 15:45:21 GMT 40.776772 -111.994057 0 170 9
2021-05-03 15:45:20 GMT 40.776859 -111.994049 0 168 10
2021-05-03 15:45:18 GMT 40.776958 -111.994080 0 172 8
2021-05-03 15:45:16 GMT 40.777000 -111.994102 0 175 6
2021-05-03 15:45:15 GMT 40.777039 -111.994087 0 169 8
2021-05-03 15:45:13 GMT 40.777081 -111.994102 0 171 8
2021-05-03 15:45:12 GMT 40.777111 -111.994133 0 176 8
2021-05-03 15:45:11 GMT 40.777149 -111.994118 0 175 8
2021-05-03 15:45:09 GMT 40.777222 -111.994133 0 175 10
2021-05-03 15:45:08 GMT 40.777260 -111.994133 0 172 10
2021-05-03 15:45:07 GMT 40.777309 -111.994141 0 174 9
2021-05-03 15:45:05 GMT 40.777401 -111.994164 0 175 8
2021-05-03 15:45:04 GMT 40.777439 -111.994141 0 170 8
2021-05-03 15:45:03 GMT 40.777470 -111.994133 0 171 9
2021-05-03 15:45:01 GMT 40.777531 -111.994202 0 182 12
2021-05-03 15:45:00 GMT 40.777592 -111.994186 0 179 12
2021-05-03 15:44:59 GMT 40.777649 -111.994171 0 174 12
2021-05-03 15:44:57 GMT 40.777748 -111.994141 0 164 13
2021-05-03 15:44:55 GMT 40.777851 -111.994232 0 175 13
2021-05-03 15:44:54 GMT 40.777920 -111.994232 0 172 14
2021-05-03 15:44:53 GMT 40.777981 -111.994247 0 181 13
2021-05-03 15:44:51 GMT 40.778111 -111.994263 0 180 12
2021-05-03 15:44:50 GMT 40.778179 -111.994293 0 180 10
2021-05-03 15:44:49 GMT 40.778210 -111.994232 0 172 12
2021-05-03 15:44:47 GMT 40.778320 -111.994263 0 176 13
2021-05-03 15:44:46 GMT 40.778381 -111.994270 0 177 13
2021-05-03 15:44:45 GMT 40.778500 -111.994270 0 173 12
2021-05-03 15:44:43 GMT 40.778561 -111.994270 0 171 11
2021-05-03 15:44:42 GMT 40.778671 -111.994301 0 172 12
2021-05-03 15:44:40 GMT 40.778728 -111.994308 0 170 11
2021-05-03 15:44:39 GMT 40.778782 -111.994301 0 166 12
2021-05-03 15:44:38 GMT 40.778881 -111.994362 0 175 13
2021-05-03 15:44:36 GMT 40.778950 -111.994377 0 184 13
2021-05-03 15:44:35 GMT 40.779091 -111.994392 0 189 10
2021-05-03 15:44:33 GMT 40.779121 -111.994362 0 177 13
2021-05-03 15:44:32 GMT 40.779171 -111.994331 0 170 14
2021-05-03 15:44:31 GMT 40.779221 -111.994362 0 176 14
2021-05-03 15:44:29 GMT 40.779350 -111.994370 0 175 14
2021-05-03 15:44:28 GMT 40.779419 -111.994370 0 174 13
2021-05-03 15:44:27 GMT 40.779530 -111.994392 0 173 15
2021-05-03 15:44:25 GMT 40.779598 -111.994408 0 176 15
2021-05-03 15:44:24 GMT 40.779739 -111.994423 0 188 13
2021-05-03 15:44:22 GMT 40.779789 -111.994469 0 192 15
2021-05-03 15:44:20 GMT 40.779911 -111.994431 0 192 16
2021-05-03 15:44:19 GMT 40.779980 -111.994377 0 186 16
2021-05-03 15:44:17 GMT 40.780140 -111.994370 0 194 12
2021-05-03 15:44:16 GMT 40.780201 -111.994362 0 199 12
2021-05-03 15:44:15 GMT 40.780251 -111.994362 0 201 12
2021-05-03 15:44:13 GMT 40.780350 -111.994278 0 193 11
2021-05-03 15:44:12 GMT 40.780441 -111.994247 0 192 14
2021-05-03 15:44:10 GMT 40.780491 -111.994217 0 186 16
2021-05-03 15:44:09 GMT 40.780590 -111.994202 0 187 13
2021-05-03 15:44:07 GMT 40.780708 -111.994202 0 194 14
2021-05-03 15:44:06 GMT 40.780811 -111.994118 0 183 15
2021-05-03 15:44:05 GMT 40.780869 -111.994118 0 185 16
2021-05-03 15:44:03 GMT 40.780941 -111.994118 0 185 17
2021-05-03 15:44:01 GMT 40.781101 -111.994087 0 180 17
2021-05-03 15:44:00 GMT 40.781189 -111.994072 0 176 15
2021-05-03 15:43:59 GMT 40.781269 -111.994087 0 178 14
2021-05-03 15:43:57 GMT 40.781380 -111.994110 0 180 17
2021-05-03 15:43:56 GMT 40.781471 -111.994072 0 169 15
2021-05-03 15:43:55 GMT 40.781540 -111.994110 0 178 14
2021-05-03 15:43:54 GMT 40.781658 -111.994118 0 179 16
2021-05-03 15:43:52 GMT 40.781750 -111.994141 0 182 14
2021-05-03 15:43:51 GMT 40.781879 -111.994110 0 172 17
2021-05-03 15:43:49 GMT 40.781971 -111.994102 0 166 15
2021-05-03 15:43:48 GMT 40.782028 -111.994148 0 175 15
2021-05-03 15:43:47 GMT 40.782101 -111.994164 0 176 15
2021-05-03 15:43:45 GMT 40.782249 -111.994179 0 176 15
2021-05-03 15:43:44 GMT 40.782318 -111.994186 0 175 13
2021-05-03 15:43:43 GMT 40.782452 -111.994186 0 174 13
2021-05-03 15:43:41 GMT 40.782490 -111.994232 0 181 16
2021-05-03 15:43:39 GMT 40.782631 -111.994209 0 177 15
2021-05-03 15:43:38 GMT 40.782719 -111.994247 0 185 13
2021-05-03 15:43:37 GMT 40.782822 -111.994164 0 165 16
2021-05-03 15:43:35 GMT 40.782890 -111.994202 0 171 16
2021-05-03 15:43:34 GMT 40.783039 -111.994209 0 169 13
2021-05-03 15:43:32 GMT 40.783100 -111.994247 0 175 13
2021-05-03 15:43:31 GMT 40.783161 -111.994270 0 178 11
2021-05-03 15:43:30 GMT 40.783199 -111.994270 0 171 13
2021-05-03 15:43:28 GMT 40.783310 -111.994270 0 170 14
2021-05-03 15:43:27 GMT 40.783371 -111.994293 0 171 15
2021-05-03 15:43:25 GMT 40.783569 -111.994331 0 174 13
2021-05-03 15:43:23 GMT 40.783630 -111.994377 0 183 12
2021-05-03 15:43:22 GMT 40.783680 -111.994370 0 181 12
2021-05-03 15:43:21 GMT 40.783798 -111.994362 0 177 12
2021-05-03 15:43:19 GMT 40.783852 -111.994347 0 177 13
2021-05-03 15:43:18 GMT 40.783932 -111.994370 0 178 10
2021-05-03 15:43:17 GMT 40.784031 -111.994362 0 177 9
2021-05-03 15:43:15 GMT 40.784061 -111.994370 0 180 11
2021-05-03 15:43:14 GMT 40.784161 -111.994370 0 177 11
2021-05-03 15:43:12 GMT 40.784222 -111.994370 0 173 10
2021-05-03 15:43:11 GMT 40.784260 -111.994347 0 168 12
2021-05-03 15:43:10 GMT 40.784382 -111.994392 0 174 10
2021-05-03 15:43:08 GMT 40.784420 -111.994408 0 178 10
2021-05-03 15:43:07 GMT 40.784458 -111.994400 0 176 11
2021-05-03 15:43:05 GMT 40.784561 -111.994431 0 182 10
2021-05-03 15:43:04 GMT 40.784611 -111.994400 0 172 9
2021-05-03 15:43:03 GMT 40.784698 -111.994400 0 171 9
2021-05-03 15:43:01 GMT 40.784721 -111.994431 0 174 10
2021-05-03 15:43:00 GMT 40.784771 -111.994408 0 171 10
2021-05-03 15:42:58 GMT 40.784870 -111.994453 0 174 9
2021-05-03 15:42:57 GMT 40.784901 -111.994476 0 181 10
2021-05-03 15:42:55 GMT 40.784988 -111.994461 0 180 10
2021-05-03 15:42:54 GMT 40.785030 -111.994461 0 180 11
2021-05-03 15:42:53 GMT 40.785091 -111.994453 0 178 10
2021-05-03 15:42:51 GMT 40.785172 -111.994453 0 167 11
2021-05-03 15:42:50 GMT 40.785221 -111.994423 0 160 12
2021-05-03 15:42:49 GMT 40.785278 -111.994476 0 169 10
2021-05-03 15:42:47 GMT 40.785389 -111.994507 0 173 10
2021-05-03 15:42:46 GMT 40.785450 -111.994522 0 176 7
2021-05-03 15:42:44 GMT 40.785519 -111.994530 0 176 8
2021-05-03 15:42:43 GMT 40.785549 -111.994537 0 175 8
2021-05-03 15:42:42 GMT 40.785622 -111.994530 0 170 10
2021-05-03 15:42:40 GMT 40.785660 -111.994537 0 174 11
2021-05-03 15:42:39 GMT 40.785709 -111.994568 0 177 11
2021-05-03 15:42:38 GMT 40.785770 -111.994560 0 175 10
2021-05-03 15:42:37 GMT 40.785820 -111.994583 0 176 8
2021-05-03 15:42:35 GMT 40.785900 -111.994591 0 175 7
2021-05-03 15:42:34 GMT 40.785919 -111.994553 0 177 9
2021-05-03 15:42:32 GMT 40.786018 -111.994614 0 188 7
2021-05-03 15:42:31 GMT 40.786041 -111.994598 0 189 8
2021-05-03 15:42:29 GMT 40.786098 -111.994598 0 196 11
2021-05-03 15:42:28 GMT 40.786160 -111.994614 0 205 10
2021-05-03 15:42:27 GMT 40.786201 -111.994591 0 209 10
2021-05-03 15:42:25 GMT 40.786301 -111.994537 0 230 8
2021-05-03 15:42:24 GMT 40.786339 -111.994522 0 247 7
2021-05-03 15:42:23 GMT 40.786369 -111.994469 0 257 8
2021-05-03 15:42:21 GMT 40.786400 -111.994423 0 259 8
2021-05-03 15:42:20 GMT 40.786400 -111.994331 0 261 8
2021-05-03 15:42:18 GMT 40.786411 -111.994293 0 264 9
2021-05-03 15:42:17 GMT 40.786430 -111.994263 0 262 11
2021-05-03 15:42:15 GMT 40.786430 -111.994118 0 263 9
2021-05-03 15:42:14 GMT 40.786461 -111.994057 0 264 8
2021-05-03 15:42:12 GMT 40.786461 -111.993950 0 266 7
2021-05-03 15:42:11 GMT 40.786461 -111.993889 0 267 5
2021-05-03 15:42:09 GMT 40.786480 -111.993851 0 269 7
2021-05-03 15:42:08 GMT 40.786449 -111.993797 0 258 6
2021-05-03 15:42:07 GMT 40.786461 -111.993729 0 264 6
2021-05-03 15:42:05 GMT 40.786480 -111.993721 0 267 8
2021-05-03 15:42:03 GMT 40.786469 -111.993629 0 266 8
2021-05-03 15:42:02 GMT 40.786499 -111.993584 0 269 8
2021-05-03 15:42:01 GMT 40.786491 -111.993538 0 267 8
2021-05-03 15:42:00 GMT 40.786480 -111.993477 0 263 7
2021-05-03 15:41:58 GMT 40.786491 -111.993393 0 262 7
2021-05-03 15:41:57 GMT 40.786491 -111.993347 0 264 7
2021-05-03 15:41:56 GMT 40.786499 -111.993332 0 269 8
2021-05-03 15:41:55 GMT 40.786510 -111.993294 0 261 9
2021-05-03 15:41:53 GMT 40.786518 -111.993187 0 268 10
2021-05-03 15:41:52 GMT 40.786510 -111.993118 0 268 10
2021-05-03 15:41:51 GMT 40.786530 -111.993057 0 269 10
2021-05-03 15:41:49 GMT 40.786518 -111.992943 0 265 10
2021-05-03 15:41:48 GMT 40.786518 -111.992867 0 263 9
2021-05-03 15:41:47 GMT 40.786518 -111.992844 0 261 10
2021-05-03 15:41:45 GMT 40.786541 -111.992722 0 268 10
2021-05-03 15:41:44 GMT 40.786541 -111.992668 0 269 11
2021-05-03 15:41:43 GMT 40.786541 -111.992607 0 270 12
2021-05-03 15:41:41 GMT 40.786541 -111.992477 0 265 13
2021-05-03 15:41:39 GMT 40.786541 -111.992287 0 264 10
2021-05-03 15:41:38 GMT 40.786549 -111.992241 0 264 11
2021-05-03 15:41:37 GMT 40.786572 -111.992172 0 265 11
2021-05-03 15:41:35 GMT 40.786560 -111.992088 0 263 15
2021-05-03 15:41:34 GMT 40.786572 -111.991989 0 262 15
2021-05-03 15:41:33 GMT 40.786610 -111.991768 0 264 11
2021-05-03 15:40:24 GMT 40.786873 -111.987701 0 264 8
2021-05-03 15:39:24 GMT 40.786907 -111.986671 0 275 0
2021-05-03 15:37:02 GMT 40.786907 -111.986671 0 275 0

Making use of Plane Finder data

You are free to use the raw flight data, aircraft information and images provided in this report for your own purposes provided the data is correctly attributed to Plane Finder. We ask that you please credit Plane Finder and link to planefinder.net in close proximity to the content.

Optionally one of the following logos (no smaller then 150x24px) can be used and must link to planefinder.net

Embedding the Plane Finder map

You are welcome to embed the Plane Finder playback map on your website to offer visitors a more interactive experience. We suggest using the following HTML code:

<iframe src="//planefinder.net/data/report/DL628-N696DL-7700-squawk-2021-05-03/map" width="800" height="600" seamless="seamless"></iframe>

Where our data comes from

Plane Finder has a global network of data feeds and antenna radars that receive data broadcast directly from aircraft. The primary technologies used are ADS-B and MLAT. We also show feeds from the FAA and a FLARM glider feed.

Click here to find out more about the Plane Finder network.

How we collect our data